Wetterdaten: Mittwoch, 25.03.2015
Datum Zeit Temp. Aussen +5cm Feuchte Auss Luftdruck Regen Sonnenschein Regendauer Solar Windben
25.03.2015 00:00 7,8 C 6,1 C 79 % 1005,0 hPa 0,0 l/m 0 min 0 min 0 W/m 6,3 km/h (2 Bft)
25.03.2015 00:02 7,8 C 6,1 C 79 % 1005,0 hPa 0,0 l/m 0 min 0 min 0 W/m 6,3 km/h (2 Bft)
25.03.2015 00:06 7,8 C 6,1 C 80 % 1005,0 hPa 0,0 l/m 0 min 0 min 0 W/m 8,4 km/h (2 Bft)
25.03.2015 00:08 7,8 C 6,1 C 80 % 1005,0 hPa 0,0 l/m 0 min 0 min 0 W/m 6,3 km/h (2 Bft)
25.03.2015 00:10 7,8 C 6,1 C 80 % 1005,0 hPa 0,0 l/m 0 min 0 min 0 W/m 6,3 km/h (2 Bft)
25.03.2015 00:12 7,8 C 6,1 C 80 % 1004,9 hPa 0,0 l/m 0 min 0 min 0 W/m 8,4 km/h (2 Bft)
25.03.2015 00:14 7,7 C 6,1 C 80 % 1004,8 hPa 0,0 l/m 0 min 0 min 0 W/m 8,4 km/h (2 Bft)
25.03.2015 00:16 7,7 C 6,1 C 80 % 1004,8 hPa 0,0 l/m 0 min 0 min 0 W/m 6,3 km/h (2 Bft)
25.03.2015 00:18 7,7 C 6,1 C 80 % 1004,8 hPa 0,0 l/m 0 min 0 min 0 W/m 6,3 km/h (2 Bft)
25.03.2015 00:20 7,7 C 6,1 C 80 % 1004,8 hPa 0,0 l/m 0 min 0 min 0 W/m 8,4 km/h (2 Bft)
25.03.2015 00:22 7,7 C 6,1 C 80 % 1004,8 hPa 0,0 l/m 0 min 0 min 0 W/m 10,5 km/h (2 Bft)
25.03.2015 00:24 7,7 C 6,1 C 81 % 1004,7 hPa 0,0 l/m 0 min 0 min 0 W/m 8,4 km/h (2 Bft)
25.03.2015 00:26 7,7 C 6,1 C 81 % 1004,8 hPa 0,0 l/m 0 min 0 min 0 W/m 6,3 km/h (2 Bft)
25.03.2015 00:28 7,7 C 6,1 C 81 % 1004,7 hPa 0,0 l/m 0 min 0 min 0 W/m 10,5 km/h (2 Bft)
25.03.2015 00:30 7,6 C 6,1 C 81 % 1004,6 hPa 0,0 l/m 0 min 0 min 0 W/m 10,5 km/h (2 Bft)
25.03.2015 00:32 7,6 C 6,1 C 81 % 1004,6 hPa 0,0 l/m 0 min 0 min 0 W/m 14,6 km/h (3 Bft)
25.03.2015 00:34 7,6 C 6,1 C 81 % 1004,4 hPa 0,0 l/m 0 min 0 min 0 W/m 12,6 km/h (3 Bft)
25.03.2015 00:36 7,6 C 6,1 C 81 % 1004,4 hPa 0,0 l/m 0 min 0 min 0 W/m 10,5 km/h (2 Bft)
25.03.2015 00:38 7,6 C 6,1 C 81 % 1004,4 hPa 0,0 l/m 0 min 0 min 0 W/m 12,6 km/h (3 Bft)
25.03.2015 00:40 7,6 C 6,1 C 81 % 1004,3 hPa 0,0 l/m 0 min 0 min 0 W/m 14,6 km/h (3 Bft)
25.03.2015 00:42 7,6 C 6,1 C 81 % 1004,2 hPa 0,0 l/m 0 min 0 min 0 W/m 14,6 km/h (3 Bft)
25.03.2015 00:44 7,6 C 6,1 C 81 % 1004,1 hPa 0,0 l/m 0 min 0 min 0 W/m 14,6 km/h (3 Bft)
25.03.2015 00:46 7,6 C 6,1 C 81 % 1004,1 hPa 0,0 l/m 0 min 0 min 0 W/m 14,6 km/h (3 Bft)
25.03.2015 00:48 7,5 C 6,1 C 81 % 1004,2 hPa 0,0 l/m 0 min 0 min 0 W/m 12,6 km/h (3 Bft)
25.03.2015 00:50 7,5 C 6,1 C 82 % 1004,3 hPa 0,0 l/m 0 min 0 min 0 W/m 8,4 km/h (2 Bft)
25.03.2015 00:52 7,5 C 6,1 C 82 % 1004,2 hPa 0,0 l/m 0 min 0 min 0 W/m 8,4 km/h (2 Bft)
25.03.2015 00:54 7,5 C 5,6 C 82 % 1004,2 hPa 0,0 l/m 0 min 0 min 0 W/m 8,4 km/h (2 Bft)
25.03.2015 00:56 7,4 C 5,6 C 82 % 1004,2 hPa 0,0 l/m 0 min 0 min 0 W/m 14,6 km/h (3 Bft)
25.03.2015 00:58 7,4 C 5,6 C 82 % 1004,2 hPa 0,0 l/m 0 min 0 min 0 W/m 10,5 km/h (2 Bft)
25.03.2015 01:00 7,4 C 5,6 C 82 % 1004,1 hPa 0,0 l/m 0 min 0 min 0 W/m 10,5 km/h (2 Bft)
25.03.2015 01:02 7,4 C 5,6 C 82 % 1004,2 hPa 0,0 l/m 0 min 0 min 0 W/m 8,4 km/h (2 Bft)
25.03.2015 01:04 7,4 C 5,0 C 82 % 1004,3 hPa 0,0 l/m 0 min 0 min 0 W/m 8,4 km/h (2 Bft)
25.03.2015 01:06 7,4 C 5,0 C 82 % 1004,3 hPa 0,0 l/m 0 min 0 min 0 W/m 2,1 km/h (1 Bft)
25.03.2015 01:08 7,4 C 5,0 C 82 % 1004,2 hPa 0,0 l/m 0 min 0 min 0 W/m 2,1 km/h (1 Bft)
25.03.2015 01:10 7,3 C 5,0 C 82 % 1004,2 hPa 0,0 l/m 0 min 0 min 0 W/m 4,2 km/h (1 Bft)
25.03.2015 01:12 7,3 C 5,0 C 82 % 1004,2 hPa 0,0 l/m 0 min 0 min 0 W/m 4,2 km/h (1 Bft)
25.03.2015 01:14 7,3 C 5,0 C 82 % 1004,2 hPa 0,0 l/m 0 min 0 min 0 W/m 6,3 km/h (2 Bft)
25.03.2015 01:16 7,3 C 5,0 C 82 % 1004,2 hPa 0,0 l/m 0 min 0 min 0 W/m 6,3 km/h (2 Bft)
25.03.2015 01:18 7,3 C 5,0 C 82 % 1004,1 hPa 0,0 l/m 0 min 0 min 0 W/m 6,3 km/h (2 Bft)
25.03.2015 01:20 7,2 C 5,0 C 82 % 1004,1 hPa 0,0 l/m 0 min 0 min 0 W/m 4,2 km/h (1 Bft)
25.03.2015 01:22 7,2 C 5,0 C 82 % 1004,1 hPa 0,0 l/m 0 min 0 min 0 W/m 4,2 km/h (1 Bft)
25.03.2015 01:24 7,2 C 5,0 C 82 % 1004,1 hPa 0,0 l/m 0 min 0 min 0 W/m 4,2 km/h (1 Bft)
25.03.2015 01:26 7,2 C 5,0 C 82 % 1004,1 hPa 0,0 l/m 0 min 0 min 0 W/m 4,2 km/h (1 Bft)
25.03.2015 01:28 7,1 C 5,6 C 82 % 1004,1 hPa 0,0 l/m 0 min 0 min 0 W/m 6,3 km/h (2 Bft)
25.03.2015 01:30 7,1 C 5,6 C 83 % 1004,0 hPa 0,0 l/m 0 min 0 min 0 W/m 6,3 km/h (2 Bft)
25.03.2015 01:32 7,1 C 5,6 C 83 % 1004,0 hPa 0,0 l/m 0 min 0 min 0 W/m 6,3 km/h (2 Bft)
25.03.2015 01:34 7,1 C 5,6 C 83 % 1004,0 hPa 0,0 l/m 0 min 0 min 0 W/m 6,3 km/h (2 Bft)
25.03.2015 01:36 7,1 C 5,6 C 83 % 1003,9 hPa 0,0 l/m 0 min 0 min 0 W/m 4,2 km/h (1 Bft)
25.03.2015 01:38 7,1 C 5,6 C 83 % 1003,8 hPa 0,0 l/m 0 min 0 min 0 W/m 4,2 km/h (1 Bft)
25.03.2015 01:40 7,1 C 5,6 C 83 % 1003,8 hPa 0,0 l/m 0 min 0 min 0 W/m 4,2 km/h (1 Bft)
25.03.2015 01:42 7,0 C 5,6 C 83 % 1003,8 hPa 0,0 l/m 0 min 0 min 0 W/m 4,2 km/h (1 Bft)
25.03.2015 01:44 7,1 C 5,6 C 83 % 1003,7 hPa 0,0 l/m 0 min 0 min 0 W/m 6,3 km/h (2 Bft)
25.03.2015 01:46 7,0 C 5,6 C 83 % 1003,7 hPa 0,0 l/m 0 min 0 min 0 W/m 8,4 km/h (2 Bft)
25.03.2015 01:48 7,0 C 5,6 C 83 % 1003,8 hPa 0,0 l/m 0 min 0 min 0 W/m 4,2 km/h (1 Bft)
25.03.2015 01:50 7,0 C 5,6 C 83 % 1003,9 hPa 0,0 l/m 0 min 0 min 0 W/m 2,1 km/h (1 Bft)
25.03.2015 01:52 7,0 C 5,6 C 83 % 1003,9 hPa 0,0 l/m 0 min 0 min 0 W/m 2,1 km/h (1 Bft)
25.03.2015 01:54 7,0 C 5,6 C 83 % 1003,9 hPa 0,0 l/m 0 min 0 min 0 W/m 2,1 km/h (1 Bft)
25.03.2015 01:56 7,0 C 5,6 C 83 % 1004,0 hPa 0,0 l/m 0 min 0 min 0 W/m 2,1 km/h (1 Bft)
25.03.2015 01:58 7,0 C 5,6 C 83 % 1003,9 hPa 0,0 l/m 0 min 0 min 0 W/m 4,2 km/h (1 Bft)
25.03.2015 02:00 7,0 C 5,6 C 83 % 1004,0 hPa 0,0 l/m 0 min 0 min 0 W/m 2,1 km/h (1 Bft)
25.03.2015 02:02 7,0 C 5,6 C 83 % 1004,0 hPa 0,0 l/m 0 min 0 min 0 W/m 2,1 km/h (1 Bft)
25.03.2015 02:04 6,9 C 5,6 C 83 % 1004,0 hPa 0,0 l/m 0 min 0 min 0 W/m 4,2 km/h (1 Bft)
25.03.2015 02:06 6,9 C 5,6 C 83 % 1004,0 hPa 0,0 l/m 0 min 0 min 0 W/m 4,2 km/h (1 Bft)
25.03.2015 02:08 6,9 C 5,6 C 84 % 1004,0 hPa 0,0 l/m 0 min 0 min 0 W/m 4,2 km/h (1 Bft)
25.03.2015 02:10 6,9 C 5,6 C 83 % 1004,0 hPa 0,0 l/m 0 min 0 min 0 W/m 6,3 km/h (2 Bft)
25.03.2015 02:12 6,9 C 5,6 C 84 % 1004,0 hPa 0,0 l/m 0 min 0 min 0 W/m 6,3 km/h (2 Bft)
25.03.2015 02:14 6,9 C 5,6 C 84 % 1003,9 hPa 0,0 l/m 0 min 0 min 0 W/m 6,3 km/h (2 Bft)
25.03.2015 02:16 6,9 C 5,6 C 84 % 1004,0 hPa 0,0 l/m 0 min 0 min 0 W/m 8,4 km/h (2 Bft)
25.03.2015 02:18 6,9 C 5,6 C 84 % 1004,0 hPa 0,0 l/m 0 min 0 min 0 W/m 6,3 km/h (2 Bft)
25.03.2015 02:20 6,9 C 5,6 C 84 % 1004,0 hPa 0,0 l/m 0 min 0 min 0 W/m 6,3 km/h (2 Bft)
25.03.2015 02:22 6,9 C 5,6 C 84 % 1004,1 hPa 0,0 l/m 0 min 0 min 0 W/m 6,3 km/h (2 Bft)
25.03.2015 02:24 6,9 C 5,6 C 84 % 1004,0 hPa 0,0 l/m 0 min 0 min 0 W/m 4,2 km/h (1 Bft)
25.03.2015 02:26 6,9 C 5,6 C 84 % 1004,1 hPa 0,0 l/m 0 min 0 min 0 W/m 6,3 km/h (2 Bft)
25.03.2015 02:28 6,9 C 5,6 C 84 % 1004,1 hPa 0,0 l/m 0 min 2 min 0 W/m 6,3 km/h (2 Bft)
25.03.2015 02:30 6,9 C 5,6 C 84 % 1004,2 hPa 0,0 l/m 0 min 0 min 0 W/m 4,2 km/h (1 Bft)
25.03.2015 02:32 6,9 C 5,6 C 84 % 1004,1 hPa 0,0 l/m 0 min 2 min 0 W/m 8,4 km/h (2 Bft)
25.03.2015 02:34 6,9 C 5,0 C 84 % 1004,1 hPa 0,0 l/m 0 min 2 min 0 W/m 8,4 km/h (2 Bft)
25.03.2015 02:36 6,9 C 5,0 C 85 % 1004,1 hPa 0,0 l/m 0 min 2 min 0 W/m 6,3 km/h (2 Bft)
25.03.2015 02:38 6,9 C 5,0 C 85 % 1004,2 hPa 0,0 l/m 0 min 2 min 0 W/m 4,2 km/h (1 Bft)
25.03.2015 02:40 6,9 C 5,0 C 85 % 1004,1 hPa 0,2 l/m 0 min 2 min 0 W/m 6,3 km/h (2 Bft)
25.03.2015 02:42 6,9 C 5,0 C 85 % 1004,2 hPa 0,0 l/m 0 min 2 min 0 W/m 6,3 km/h (2 Bft)
25.03.2015 02:44 6,9 C 5,0 C 85 % 1004,2 hPa 0,0 l/m 0 min 2 min 0 W/m 4,2 km/h (1 Bft)
25.03.2015 02:46 6,9 C 5,0 C 86 % 1004,3 hPa 0,0 l/m 0 min 2 min 0 W/m 8,4 km/h (2 Bft)
25.03.2015 02:48 6,9 C 5,0 C 86 % 1004,4 hPa 0,0 l/m 0 min 2 min 0 W/m 6,3 km/h (2 Bft)
25.03.2015 02:50 6,9 C 4,4 C 86 % 1004,5 hPa 0,0 l/m 0 min 2 min 0 W/m 8,4 km/h (2 Bft)
25.03.2015 02:52 6,9 C 4,4 C 87 % 1004,6 hPa 0,0 l/m 0 min 2 min 0 W/m 8,4 km/h (2 Bft)
25.03.2015 02:54 6,9 C 4,4 C 87 % 1004,7 hPa 0,2 l/m 0 min 2 min 0 W/m 8,4 km/h (2 Bft)
25.03.2015 02:56 6,9 C 4,4 C 87 % 1004,5 hPa 0,2 l/m 0 min 2 min 0 W/m 12,6 km/h (3 Bft)
25.03.2015 02:58 6,8 C 4,4 C 87 % 1004,5 hPa 0,0 l/m 0 min 2 min 0 W/m 12,6 km/h (3 Bft)
25.03.2015 03:00 6,8 C 4,4 C 88 % 1004,4 hPa 0,2 l/m 0 min 2 min 0 W/m 10,5 km/h (2 Bft)
25.03.2015 03:02 6,8 C 4,4 C 88 % 1004,5 hPa 0,2 l/m 0 min 2 min 0 W/m 12,6 km/h (3 Bft)
25.03.2015 03:04 6,8 C 4,4 C 88 % 1004,7 hPa 0,0 l/m 0 min 2 min 0 W/m 12,6 km/h (3 Bft)
25.03.2015 03:06 6,8 C 4,4 C 88 % 1004,7 hPa 0,0 l/m 0 min 2 min 0 W/m 14,6 km/h (3 Bft)
25.03.2015 03:08 6,7 C 4,4 C 88 % 1004,5 hPa 0,0 l/m 0 min 2 min 0 W/m 14,6 km/h (3 Bft)
25.03.2015 03:10 6,7 C 4,4 C 89 % 1004,6 hPa 0,2 l/m 0 min 2 min 0 W/m 8,4 km/h (2 Bft)
25.03.2015 03:12 6,7 C 4,4 C 89 % 1004,6 hPa 0,2 l/m 0 min 2 min 0 W/m 8,4 km/h (2 Bft)
25.03.2015 03:14 6,7 C 4,4 C 89 % 1004,8 hPa 0,2 l/m 0 min 2 min 0 W/m 12,6 km/h (3 Bft)
25.03.2015 03:16 6,7 C 4,4 C 89 % 1004,9 hPa 0,2 l/m 0 min 2 min 0 W/m 10,5 km/h (2 Bft)
25.03.2015 03:18 6,7 C 4,4 C 89 % 1004,8 hPa 0,0 l/m 0 min 2 min 0 W/m 10,5 km/h (2 Bft)
25.03.2015 03:20 6,6 C 4,4 C 90 % 1004,7 hPa 0,2 l/m 0 min 2 min 0 W/m 10,5 km/h (2 Bft)
25.03.2015 03:22 6,6 C 4,4 C 90 % 1004,6 hPa 0,2 l/m 0 min 2 min 0 W/m 10,5 km/h (2 Bft)
25.03.2015 03:24 6,6 C 4,4 C 90 % 1004,3 hPa 0,2 l/m 0 min 2 min 0 W/m 16,7 km/h (3 Bft)
25.03.2015 03:26 6,5 C 4,4 C 90 % 1004,2 hPa 0,2 l/m 0 min 2 min 0 W/m 18,8 km/h (3 Bft)
25.03.2015 03:28 6,4 C 4,4 C 90 % 1004,1 hPa 0,2 l/m 0 min 2 min 0 W/m 20,9 km/h (4 Bft)
25.03.2015 03:30 6,4 C 4,4 C 90 % 1004,0 hPa 0,2 l/m 0 min 2 min 0 W/m 16,7 km/h (3 Bft)
25.03.2015 03:32 6,4 C 4,4 C 90 % 1004,0 hPa 0,0 l/m 0 min 2 min 0 W/m 8,4 km/h (2 Bft)
25.03.2015 03:34 6,3 C 4,4 C 91 % 1003,9 hPa 0,0 l/m 0 min 2 min 0 W/m 12,6 km/h (3 Bft)
25.03.2015 03:36 6,3 C 4,4 C 91 % 1003,9 hPa 0,2 l/m 0 min 2 min 0 W/m 12,6 km/h (3 Bft)
25.03.2015 03:38 6,2 C 4,4 C 91 % 1003,7 hPa 0,0 l/m 0 min 2 min 0 W/m 16,7 km/h (3 Bft)
25.03.2015 03:40 6,2 C 4,4 C 91 % 1003,7 hPa 0,2 l/m 0 min 2 min 0 W/m 12,6 km/h (3 Bft)
25.03.2015 03:42 6,2 C 4,4 C 91 % 1003,8 hPa 0,0 l/m 0 min 2 min 0 W/m 16,7 km/h (3 Bft)
25.03.2015 03:44 6,1 C 4,4 C 92 % 1003,7 hPa 0,0 l/m 0 min 2 min 0 W/m 18,8 km/h (3 Bft)
25.03.2015 03:46 6,1 C 4,4 C 92 % 1003,8 hPa 0,2 l/m 0 min 2 min 0 W/m 12,6 km/h (3 Bft)
25.03.2015 03:48 6,1 C 4,4 C 92 % 1003,7 hPa 0,2 l/m 0 min 2 min 0 W/m 14,6 km/h (3 Bft)
25.03.2015 03:50 6,0 C 4,4 C 92 % 1003,8 hPa 0,0 l/m 0 min 2 min 0 W/m 12,6 km/h (3 Bft)
25.03.2015 03:52 6,0 C 4,4 C 92 % 1003,9 hPa 0,0 l/m 0 min 2 min 0 W/m 6,3 km/h (2 Bft)
25.03.2015 03:54 6,0 C 4,4 C 92 % 1003,9 hPa 0,0 l/m 0 min 2 min 0 W/m 12,6 km/h (3 Bft)
25.03.2015 03:56 5,9 C 4,4 C 92 % 1003,9 hPa 0,2 l/m 0 min 2 min 0 W/m 14,6 km/h (3 Bft)
25.03.2015 03:58 5,9 C 4,4 C 93 % 1003,9 hPa 0,0 l/m 0 min 2 min 0 W/m 8,4 km/h (2 Bft)
25.03.2015 04:00 5,9 C 4,4 C 93 % 1003,9 hPa 0,0 l/m 0 min 2 min 0 W/m 10,5 km/h (2 Bft)
25.03.2015 04:05 5,9 C 4,4 C 93 % 1003,8 hPa 0,2 l/m 0 min 2 min 0 W/m 10,5 km/h (2 Bft)
25.03.2015 04:06 5,9 C 4,4 C 93 % 1003,8 hPa 0,0 l/m 0 min 1 min 0 W/m 8,4 km/h (2 Bft)
25.03.2015 04:08 5,9 C 4,4 C 93 % 1003,9 hPa 0,0 l/m 0 min 2 min 0 W/m 12,6 km/h (3 Bft)
25.03.2015 04:10 5,9 C 4,4 C 93 % 1003,8 hPa 0,0 l/m 0 min 2 min 0 W/m 10,5 km/h (2 Bft)
25.03.2015 04:12 5,8 C 4,4 C 93 % 1003,9 hPa 0,0 l/m 0 min 0 min 0 W/m 12,6 km/h (3 Bft)
25.03.2015 04:14 5,8 C 4,4 C 93 % 1003,9 hPa 0,0 l/m 0 min 0 min 0 W/m 10,5 km/h (2 Bft)
25.03.2015 04:16 5,8 C 4,4 C 93 % 1003,9 hPa 0,0 l/m 0 min 0 min 0 W/m 10,5 km/h (2 Bft)
25.03.2015 04:18 5,8 C 4,4 C 93 % 1003,8 hPa 0,0 l/m 0 min 0 min 0 W/m 8,4 km/h (2 Bft)
25.03.2015 04:20 5,8 C 4,4 C 93 % 1003,8 hPa 0,0 l/m 0 min 0 min 0 W/m 8,4 km/h (2 Bft)
25.03.2015 04:22 5,8 C 4,4 C 93 % 1003,9 hPa 0,0 l/m 0 min 0 min 0 W/m 8,4 km/h (2 Bft)
25.03.2015 04:24 5,8 C 4,4 C 94 % 1003,8 hPa 0,0 l/m 0 min 0 min 0 W/m 10,5 km/h (2 Bft)
25.03.2015 04:26 5,8 C 4,4 C 94 % 1003,8 hPa 0,0 l/m 0 min 0 min 0 W/m 8,4 km/h (2 Bft)
25.03.2015 04:28 5,7 C 4,4 C 94 % 1003,9 hPa 0,0 l/m 0 min 0 min 0 W/m 10,5 km/h (2 Bft)
25.03.2015 04:30 5,7 C 4,4 C 94 % 1003,9 hPa 0,0 l/m 0 min 0 min 0 W/m 8,4 km/h (2 Bft)
25.03.2015 04:32 5,7 C 4,4 C 94 % 1003,8 hPa 0,0 l/m 0 min 0 min 0 W/m 10,5 km/h (2 Bft)
25.03.2015 04:34 5,7 C 4,4 C 94 % 1003,8 hPa 0,0 l/m 0 min 0 min 0 W/m 10,5 km/h (2 Bft)
25.03.2015 04:36 5,7 C 4,4 C 94 % 1003,8 hPa 0,0 l/m 0 min 0 min 0 W/m 12,6 km/h (3 Bft)
25.03.2015 04:38 5,7 C 4,4 C 94 % 1003,8 hPa 0,0 l/m 0 min 0 min 0 W/m 12,6 km/h (3 Bft)
25.03.2015 04:40 5,7 C 4,4 C 94 % 1003,8 hPa 0,0 l/m 0 min 0 min 0 W/m 10,5 km/h (2 Bft)
25.03.2015 04:42 5,7 C 4,4 C 94 % 1003,8 hPa 0,0 l/m 0 min 0 min 0 W/m 8,4 km/h (2 Bft)
25.03.2015 04:44 5,7 C 4,4 C 94 % 1003,8 hPa 0,0 l/m 0 min 0 min 0 W/m 8,4 km/h (2 Bft)
25.03.2015 04:46 5,7 C 4,4 C 94 % 1003,9 hPa 0,0 l/m 0 min 0 min 0 W/m 8,4 km/h (2 Bft)
25.03.2015 04:48 5,7 C 4,4 C 94 % 1003,9 hPa 0,0 l/m 0 min 0 min 0 W/m 8,4 km/h (2 Bft)
25.03.2015 04:50 5,6 C 4,4 C 94 % 1003,9 hPa 0,0 l/m 0 min 0 min 0 W/m 6,3 km/h (2 Bft)
25.03.2015 04:52 5,6 C 4,4 C 94 % 1003,9 hPa 0,0 l/m 0 min 0 min 0 W/m 8,4 km/h (2 Bft)
25.03.2015 04:54 5,6 C 4,4 C 94 % 1003,9 hPa 0,0 l/m 0 min 0 min 0 W/m 12,6 km/h (3 Bft)
25.03.2015 04:56 5,6 C 4,4 C 94 % 1003,9 hPa 0,0 l/m 0 min 0 min 0 W/m 10,5 km/h (2 Bft)
25.03.2015 04:58 5,6 C 4,4 C 94 % 1003,9 hPa 0,0 l/m 0 min 0 min 0 W/m 12,6 km/h (3 Bft)
25.03.2015 05:00 5,6 C 4,4 C 94 % 1003,9 hPa 0,0 l/m 0 min 0 min 0 W/m 12,6 km/h (3 Bft)
25.03.2015 05:02 5,6 C 4,4 C 94 % 1004,0 hPa 0,0 l/m 0 min 0 min 0 W/m 8,4 km/h (2 Bft)
25.03.2015 05:04 5,6 C 4,4 C 94 % 1003,9 hPa 0,0 l/m 0 min 0 min 0 W/m 8,4 km/h (2 Bft)
25.03.2015 05:06 5,6 C 4,4 C 95 % 1003,9 hPa 0,0 l/m 0 min 0 min 0 W/m 8,4 km/h (2 Bft)
25.03.2015 05:08 5,6 C 4,4 C 94 % 1003,9 hPa 0,0 l/m 0 min 0 min 0 W/m 8,4 km/h (2 Bft)
25.03.2015 05:10 5,6 C 4,4 C 94 % 1003,9 hPa 0,0 l/m 0 min 0 min 0 W/m 10,5 km/h (2 Bft)
25.03.2015 05:12 5,6 C 4,4 C 94 % 1003,8 hPa 0,0 l/m 0 min 0 min 0 W/m 8,4 km/h (2 Bft)
25.03.2015 05:14 5,6 C 4,4 C 95 % 1003,8 hPa 0,0 l/m 0 min 0 min 0 W/m 8,4 km/h (2 Bft)
25.03.2015 05:16 5,6 C 4,4 C 95 % 1003,8 hPa 0,0 l/m 0 min 0 min 0 W/m 6,3 km/h (2 Bft)
25.03.2015 05:18 5,6 C 4,4 C 95 % 1003,8 hPa 0,0 l/m 0 min 0 min 0 W/m 6,3 km/h (2 Bft)
25.03.2015 05:20 5,6 C 4,4 C 95 % 1003,9 hPa 0,0 l/m 0 min 0 min 0 W/m 8,4 km/h (2 Bft)
25.03.2015 05:22 5,6 C 4,4 C 95 % 1003,9 hPa 0,0 l/m 0 min 0 min 0 W/m 6,3 km/h (2 Bft)
25.03.2015 05:24 5,6 C 4,4 C 95 % 1003,8 hPa 0,0 l/m 0 min 0 min 0 W/m 6,3 km/h (2 Bft)
25.03.2015 05:26 5,6 C 4,4 C 95 % 1003,8 hPa 0,0 l/m 0 min 0 min 0 W/m 6,3 km/h (2 Bft)
25.03.2015 05:28 5,6 C 4,4 C 95 % 1003,9 hPa 0,0 l/m 0 min 0 min 0 W/m 6,3 km/h (2 Bft)
25.03.2015 05:30 5,6 C 4,4 C 95 % 1003,9 hPa 0,0 l/m 0 min 0 min 0 W/m 4,2 km/h (1 Bft)
25.03.2015 05:32 5,6 C 4,4 C 95 % 1004,0 hPa 0,0 l/m 0 min 0 min 0 W/m 2,1 km/h (1 Bft)
25.03.2015 05:34 5,6 C 4,4 C 95 % 1004,0 hPa 0,0 l/m 0 min 0 min 0 W/m 4,2 km/h (1 Bft)
25.03.2015 05:36 5,6 C 4,4 C 95 % 1003,9 hPa 0,0 l/m 0 min 0 min 0 W/m 6,3 km/h (2 Bft)
25.03.2015 05:38 5,6 C 4,4 C 95 % 1003,9 hPa 0,0 l/m 0 min 0 min 0 W/m 8,4 km/h (2 Bft)
25.03.2015 05:40 5,6 C 4,4 C 95 % 1003,9 hPa 0,0 l/m 0 min 0 min 0 W/m 8,4 km/h (2 Bft)
25.03.2015 05:42 5,5 C 4,4 C 95 % 1003,9 hPa 0,0 l/m 0 min 0 min 0 W/m 6,3 km/h (2 Bft)
25.03.2015 05:44 5,5 C 4,4 C 95 % 1003,8 hPa 0,0 l/m 0 min 0 min 0 W/m 4,2 km/h (1 Bft)
25.03.2015 05:46 5,5 C 4,4 C 95 % 1003,7 hPa 0,0 l/m 0 min 0 min 0 W/m 8,4 km/h (2 Bft)
25.03.2015 05:48 5,6 C 4,4 C 95 % 1003,6 hPa 0,0 l/m 0 min 0 min 0 W/m 8,4 km/h (2 Bft)
25.03.2015 05:50 5,6 C 4,4 C 95 % 1003,6 hPa 0,0 l/m 0 min 0 min 0 W/m 6,3 km/h (2 Bft)
25.03.2015 05:52 5,6 C 4,4 C 95 % 1003,6 hPa 0,0 l/m 0 min 0 min 0 W/m 6,3 km/h (2 Bft)
25.03.2015 05:54 5,5 C 4,4 C 95 % 1003,8 hPa 0,0 l/m 0 min 0 min 0 W/m 6,3 km/h (2 Bft)
25.03.2015 05:56 5,6 C 4,4 C 95 % 1003,8 hPa 0,0 l/m 0 min 0 min 0 W/m 6,3 km/h (2 Bft)
25.03.2015 05:58 5,5 C 4,4 C 95 % 1003,9 hPa 0,0 l/m 0 min 0 min 0 W/m 6,3 km/h (2 Bft)
25.03.2015 06:00 5,5 C 4,4 C 95 % 1004,0 hPa 0,0 l/m 0 min 0 min 0 W/m 4,2 km/h (1 Bft)
25.03.2015 06:02 5,5 C 4,4 C 95 % 1004,1 hPa 0,0 l/m 0 min 0 min 0 W/m 6,3 km/h (2 Bft)
25.03.2015 06:06 5,5 C 4,4 C 95 % 1004,2 hPa 0,0 l/m 0 min 0 min 0 W/m 6,3 km/h (2 Bft)
25.03.2015 06:08 5,5 C 4,4 C 95 % 1004,1 hPa 0,0 l/m 0 min 0 min 0 W/m 6,3 km/h (2 Bft)
25.03.2015 06:10 5,5 C 4,4 C 95 % 1004,1 hPa 0,0 l/m 0 min 0 min 0 W/m 6,3 km/h (2 Bft)
25.03.2015 06:12 5,5 C 4,4 C 95 % 1004,2 hPa 0,0 l/m 0 min 0 min 0 W/m 6,3 km/h (2 Bft)
25.03.2015 06:14 5,5 C 4,4 C 95 % 1004,2 hPa 0,0 l/m 0 min 0 min 0 W/m 8,4 km/h (2 Bft)
25.03.2015 06:16 5,5 C 4,4 C 95 % 1004,2 hPa 0,0 l/m 0 min 0 min 0 W/m 6,3 km/h (2 Bft)
25.03.2015 06:18 5,5 C 4,4 C 95 % 1004,1 hPa 0,0 l/m 0 min 0 min 0 W/m 6,3 km/h (2 Bft)
25.03.2015 06:20 5,5 C 4,4 C 95 % 1004,0 hPa 0,0 l/m 0 min 0 min 0 W/m 6,3 km/h (2 Bft)
25.03.2015 06:22 5,5 C 4,4 C 96 % 1004,0 hPa 0,0 l/m 0 min 0 min 0 W/m 8,4 km/h (2 Bft)
25.03.2015 06:24 5,5 C 4,4 C 96 % 1003,9 hPa 0,0 l/m 0 min 0 min 0 W/m 8,4 km/h (2 Bft)
25.03.2015 06:26 5,5 C 4,4 C 96 % 1003,9 hPa 0,0 l/m 0 min 0 min 0 W/m 8,4 km/h (2 Bft)
25.03.2015 06:28 5,5 C 4,4 C 96 % 1003,9 hPa 0,0 l/m 0 min 0 min 0 W/m 8,4 km/h (2 Bft)
25.03.2015 06:30 5,5 C 4,4 C 96 % 1003,9 hPa 0,0 l/m 0 min 0 min 0 W/m 4,2 km/h (1 Bft)
25.03.2015 06:32 5,5 C 4,4 C 96 % 1004,0 hPa 0,0 l/m 0 min 0 min 0 W/m 2,1 km/h (1 Bft)
25.03.2015 06:34 5,5 C 4,4 C 96 % 1004,0 hPa 0,0 l/m 0 min 0 min 3 W/m 6,3 km/h (2 Bft)
25.03.2015 06:36 5,5 C 4,4 C 96 % 1004,0 hPa 0,0 l/m 0 min 0 min 5 W/m 4,2 km/h (1 Bft)
25.03.2015 06:38 5,5 C 4,4 C 96 % 1004,0 hPa 0,0 l/m 0 min 0 min 5 W/m 4,2 km/h (1 Bft)
25.03.2015 06:40 5,5 C 4,4 C 95 % 1004,0 hPa 0,0 l/m 0 min 0 min 7 W/m 6,3 km/h (2 Bft)
25.03.2015 06:42 5,5 C 4,4 C 95 % 1004,0 hPa 0,0 l/m 0 min 0 min 7 W/m 6,3 km/h (2 Bft)
25.03.2015 06:44 5,5 C 4,4 C 96 % 1003,9 hPa 0,0 l/m 0 min 0 min 7 W/m 4,2 km/h (1 Bft)
25.03.2015 06:46 5,5 C 4,4 C 96 % 1003,9 hPa 0,0 l/m 0 min 0 min 9 W/m 6,3 km/h (2 Bft)
25.03.2015 06:48 5,5 C 4,4 C 96 % 1003,9 hPa 0,0 l/m 0 min 0 min 9 W/m 6,3 km/h (2 Bft)
25.03.2015 06:50 5,5 C 4,4 C 96 % 1003,9 hPa 0,0 l/m 0 min 0 min 9 W/m 6,3 km/h (2 Bft)
25.03.2015 06:52 5,5 C 4,4 C 96 % 1003,9 hPa 0,0 l/m 0 min 0 min 9 W/m 2,1 km/h (1 Bft)
25.03.2015 06:54 5,5 C 4,4 C 96 % 1004,0 hPa 0,0 l/m 0 min 0 min 9 W/m 2,1 km/h (1 Bft)
25.03.2015 06:56 5,5 C 4,4 C 96 % 1004,0 hPa 0,0 l/m 0 min 0 min 11 W/m 4,2 km/h (1 Bft)
25.03.2015 06:58 5,5 C 4,4 C 96 % 1004,0 hPa 0,0 l/m 0 min 0 min 11 W/m 4,2 km/h (1 Bft)
25.03.2015 07:00 5,5 C 4,4 C 96 % 1004,1 hPa 0,0 l/m 0 min 0 min 11 W/m 6,3 km/h (2 Bft)
25.03.2015 07:02 5,5 C 4,4 C 96 % 1004,2 hPa 0,0 l/m 0 min 0 min 11 W/m 6,3 km/h (2 Bft)
25.03.2015 07:04 5,5 C 4,4 C 96 % 1004,3 hPa 0,0 l/m 0 min 0 min 11 W/m 6,3 km/h (2 Bft)
25.03.2015 07:06 5,5 C 4,4 C 96 % 1004,3 hPa 0,0 l/m 0 min 0 min 11 W/m 4,2 km/h (1 Bft)
25.03.2015 07:08 5,5 C 4,4 C 96 % 1004,3 hPa 0,0 l/m 0 min 0 min 12 W/m 4,2 km/h (1 Bft)
25.03.2015 07:10 5,5 C 4,4 C 96 % 1004,3 hPa 0,0 l/m 0 min 0 min 12 W/m 4,2 km/h (1 Bft)
25.03.2015 07:12 5,5 C 4,4 C 96 % 1004,4 hPa 0,0 l/m 0 min 0 min 12 W/m 6,3 km/h (2 Bft)
25.03.2015 07:14 5,5 C 4,4 C 96 % 1004,4 hPa 0,0 l/m 0 min 0 min 16 W/m 6,3 km/h (2 Bft)
25.03.2015 07:16 5,5 C 4,4 C 96 % 1004,4 hPa 0,0 l/m 0 min 0 min 21 W/m 4,2 km/h (1 Bft)
25.03.2015 07:18 5,5 C 4,4 C 96 % 1004,3 hPa 0,0 l/m 0 min 0 min 21 W/m 4,2 km/h (1 Bft)
25.03.2015 07:20 5,5 C 4,4 C 96 % 1004,3 hPa 0,0 l/m 0 min 0 min 21 W/m 4,2 km/h (1 Bft)
25.03.2015 07:22 5,6 C 4,4 C 96 % 1004,3 hPa 0,0 l/m 0 min 0 min 20 W/m 8,4 km/h (2 Bft)
25.03.2015 07:24 5,6 C 4,4 C 96 % 1004,4 hPa 0,0 l/m 0 min 0 min 21 W/m 6,3 km/h (2 Bft)
25.03.2015 07:26 5,6 C 4,4 C 96 % 1004,4 hPa 0,0 l/m 0 min 0 min 24 W/m 6,3 km/h (2 Bft)
25.03.2015 07:28 5,6 C 4,4 C 96 % 1004,4 hPa 0,0 l/m 0 min 0 min 22 W/m 6,3 km/h (2 Bft)
25.03.2015 07:30 5,6 C 4,4 C 96 % 1004,4 hPa 0,0 l/m 0 min 0 min 21 W/m 10,5 km/h (2 Bft)
25.03.2015 07:32 5,6 C 4,4 C 96 % 1004,5 hPa 0,0 l/m 0 min 0 min 19 W/m 10,5 km/h (2 Bft)
25.03.2015 07:34 5,6 C 4,4 C 96 % 1004,6 hPa 0,0 l/m 0 min 0 min 18 W/m 6,3 km/h (2 Bft)
25.03.2015 07:36 5,6 C 4,4 C 96 % 1004,5 hPa 0,0 l/m 0 min 0 min 20 W/m 6,3 km/h (2 Bft)
25.03.2015 07:38 5,6 C 4,4 C 96 % 1004,5 hPa 0,0 l/m 0 min 0 min 21 W/m 6,3 km/h (2 Bft)
25.03.2015 07:40 5,6 C 4,4 C 96 % 1004,6 hPa 0,0 l/m 0 min 2 min 19 W/m 10,5 km/h (2 Bft)
25.03.2015 07:42 5,6 C 4,4 C 96 % 1004,6 hPa 0,0 l/m 0 min 0 min 23 W/m 6,3 km/h (2 Bft)
25.03.2015 07:44 5,6 C 4,4 C 96 % 1004,5 hPa 0,0 l/m 0 min 0 min 29 W/m 6,3 km/h (2 Bft)
25.03.2015 07:46 5,6 C 4,4 C 96 % 1004,4 hPa 0,0 l/m 0 min 0 min 34 W/m 6,3 km/h (2 Bft)
25.03.2015 07:48 5,6 C 4,4 C 96 % 1004,5 hPa 0,0 l/m 0 min 0 min 37 W/m 6,3 km/h (2 Bft)
25.03.2015 07:50 5,6 C 5,0 C 96 % 1004,4 hPa 0,0 l/m 0 min 0 min 40 W/m 6,3 km/h (2 Bft)
25.03.2015 07:52 5,6 C 5,0 C 96 % 1004,5 hPa 0,0 l/m 0 min 0 min 41 W/m 4,2 km/h (1 Bft)
25.03.2015 07:54 5,6 C 5,0 C 96 % 1004,5 hPa 0,0 l/m 0 min 0 min 40 W/m 6,3 km/h (2 Bft)
25.03.2015 07:56 5,6 C 5,0 C 96 % 1004,5 hPa 0,0 l/m 0 min 0 min 43 W/m 8,4 km/h (2 Bft)
25.03.2015 07:58 5,6 C 5,0 C 96 % 1004,5 hPa 0,0 l/m 0 min 0 min 45 W/m 8,4 km/h (2 Bft)
25.03.2015 08:00 5,7 C 5,0 C 96 % 1004,5 hPa 0,0 l/m 0 min 0 min 50 W/m 6,3 km/h (2 Bft)
25.03.2015 08:02 5,7 C 5,0 C 96 % 1004,5 hPa 0,0 l/m 0 min 0 min 47 W/m 4,2 km/h (1 Bft)
25.03.2015 08:04 5,7 C 5,0 C 96 % 1004,6 hPa 0,0 l/m 0 min 0 min 39 W/m 8,4 km/h (2 Bft)
25.03.2015 08:06 5,7 C 5,0 C 96 % 1004,7 hPa 0,0 l/m 0 min 0 min 38 W/m 6,3 km/h (2 Bft)
25.03.2015 08:08 5,7 C 5,0 C 96 % 1004,6 hPa 0,0 l/m 0 min 0 min 41 W/m 8,4 km/h (2 Bft)
25.03.2015 08:10 5,7 C 5,0 C 96 % 1004,5 hPa 0,0 l/m 0 min 0 min 51 W/m 8,4 km/h (2 Bft)
25.03.2015 08:12 5,7 C 5,0 C 96 % 1004,5 hPa 0,0 l/m 0 min 0 min 59 W/m 6,3 km/h (2 Bft)
25.03.2015 08:14 5,8 C 5,0 C 96 % 1004,4 hPa 0,0 l/m 0 min 0 min 61 W/m 6,3 km/h (2 Bft)
25.03.2015 08:16 5,8 C 5,0 C 96 % 1004,4 hPa 0,0 l/m 0 min 0 min 62 W/m 10,5 km/h (2 Bft)
25.03.2015 08:18 5,8 C 5,0 C 96 % 1004,4 hPa 0,0 l/m 0 min 0 min 58 W/m 10,5 km/h (2 Bft)
25.03.2015 08:20 5,8 C 5,0 C 96 % 1004,4 hPa 0,0 l/m 0 min 0 min 51 W/m 8,4 km/h (2 Bft)
25.03.2015 08:22 5,8 C 5,0 C 96 % 1004,5 hPa 0,0 l/m 0 min 0 min 47 W/m 6,3 km/h (2 Bft)
25.03.2015 08:24 5,8 C 5,0 C 96 % 1004,4 hPa 0,0 l/m 0 min 0 min 48 W/m 8,4 km/h (2 Bft)
25.03.2015 08:26 5,8 C 5,0 C 96 % 1004,4 hPa 0,0 l/m 0 min 0 min 49 W/m 10,5 km/h (2 Bft)
25.03.2015 08:28 5,8 C 5,0 C 96 % 1004,4 hPa 0,0 l/m 0 min 0 min 44 W/m 6,3 km/h (2 Bft)
25.03.2015 08:30 5,8 C 5,0 C 96 % 1004,6 hPa 0,0 l/m 0 min 0 min 40 W/m 6,3 km/h (2 Bft)
25.03.2015 08:32 5,8 C 5,0 C 96 % 1004,6 hPa 0,0 l/m 0 min 0 min 42 W/m 10,5 km/h (2 Bft)
25.03.2015 08:34 5,8 C 5,0 C 96 % 1004,6 hPa 0,0 l/m 0 min 0 min 44 W/m 8,4 km/h (2 Bft)
25.03.2015 08:36 5,8 C 5,0 C 96 % 1004,5 hPa 0,0 l/m 0 min 0 min 45 W/m 8,4 km/h (2 Bft)
25.03.2015 08:38 5,8 C 5,0 C 96 % 1004,5 hPa 0,0 l/m 0 min 0 min 49 W/m 6,3 km/h (2 Bft)
25.03.2015 08:40 5,9 C 5,0 C 97 % 1004,5 hPa 0,0 l/m 0 min 0 min 49 W/m 8,4 km/h (2 Bft)
25.03.2015 08:42 5,9 C 5,0 C 97 % 1004,6 hPa 0,0 l/m 0 min 0 min 49 W/m 8,4 km/h (2 Bft)
25.03.2015 08:44 5,9 C 5,0 C 97 % 1004,6 hPa 0,0 l/m 0 min 0 min 46 W/m 8,4 km/h (2 Bft)
25.03.2015 08:46 5,9 C 5,0 C 97 % 1004,6 hPa 0,0 l/m 0 min 0 min 46 W/m 8,4 km/h (2 Bft)
25.03.2015 08:48 5,9 C 5,0 C 97 % 1004,7 hPa 0,0 l/m 0 min 0 min 45 W/m 10,5 km/h (2 Bft)
25.03.2015 08:50 5,9 C 5,0 C 97 % 1004,8 hPa 0,0 l/m 0 min 0 min 41 W/m 10,5 km/h (2 Bft)
25.03.2015 08:52 5,9 C 5,0 C 97 % 1004,7 hPa 0,0 l/m 0 min 0 min 44 W/m 8,4 km/h (2 Bft)
25.03.2015 08:54 5,8 C 5,0 C 97 % 1004,7 hPa 0,0 l/m 0 min 0 min 43 W/m 8,4 km/h (2 Bft)
25.03.2015 08:56 5,9 C 5,0 C 97 % 1004,8 hPa 0,0 l/m 0 min 0 min 42 W/m 10,5 km/h (2 Bft)
25.03.2015 08:58 5,9 C 5,0 C 97 % 1004,8 hPa 0,0 l/m 0 min 0 min 47 W/m 14,6 km/h (3 Bft)
25.03.2015 09:00 5,9 C 5,0 C 97 % 1004,8 hPa 0,0 l/m 0 min 0 min 58 W/m 16,7 km/h (3 Bft)
25.03.2015 09:02 5,8 C 5,0 C 97 % 1004,8 hPa 0,0 l/m 0 min 0 min 73 W/m 14,6 km/h (3 Bft)
25.03.2015 09:04 5,8 C 5,0 C 97 % 1004,9 hPa 0,0 l/m 0 min 0 min 78 W/m 10,5 km/h (2 Bft)
25.03.2015 09:06 5,8 C 5,0 C 97 % 1005,0 hPa 0,0 l/m 0 min 0 min 82 W/m 12,6 km/h (3 Bft)
25.03.2015 09:08 5,8 C 5,0 C 97 % 1004,9 hPa 0,0 l/m 0 min 0 min 85 W/m 8,4 km/h (2 Bft)
25.03.2015 09:10 5,8 C 5,0 C 97 % 1004,9 hPa 0,0 l/m 0 min 0 min 85 W/m 14,6 km/h (3 Bft)
25.03.2015 09:12 5,8 C 5,0 C 97 % 1005,0 hPa 0,0 l/m 0 min 0 min 91 W/m 10,5 km/h (2 Bft)
25.03.2015 09:14 5,8 C 5,0 C 97 % 1005,0 hPa 0,0 l/m 0 min 0 min 91 W/m 14,6 km/h (3 Bft)
25.03.2015 09:16 5,8 C 5,0 C 97 % 1005,0 hPa 0,0 l/m 0 min 0 min 94 W/m 12,6 km/h (3 Bft)
25.03.2015 09:18 5,8 C 5,6 C 97 % 1005,0 hPa 0,0 l/m 0 min 0 min 93 W/m 12,6 km/h (3 Bft)
25.03.2015 09:20 5,9 C 5,0 C 97 % 1005,0 hPa 0,0 l/m 0 min 0 min 96 W/m 16,7 km/h (3 Bft)
25.03.2015 09:22 5,9 C 5,6 C 97 % 1004,9 hPa 0,0 l/m 0 min 0 min 98 W/m 10,5 km/h (2 Bft)
25.03.2015 09:24 5,9 C 5,6 C 97 % 1004,9 hPa 0,0 l/m 0 min 0 min 107 W/m 10,5 km/h (2 Bft)
25.03.2015 09:26 5,9 C 5,6 C 97 % 1004,9 hPa 0,0 l/m 0 min 0 min 115 W/m 8,4 km/h (2 Bft)
25.03.2015 09:28 5,9 C 5,6 C 97 % 1004,9 hPa 0,0 l/m 0 min 0 min 120 W/m 14,6 km/h (3 Bft)
25.03.2015 09:30 5,9 C 5,6 C 97 % 1004,9 hPa 0,0 l/m 0 min 0 min 128 W/m 8,4 km/h (2 Bft)
25.03.2015 09:32 5,9 C 5,6 C 97 % 1005,0 hPa 0,0 l/m 0 min 0 min 134 W/m 10,5 km/h (2 Bft)
25.03.2015 09:34 5,9 C 5,6 C 97 % 1005,0 hPa 0,0 l/m 0 min 0 min 138 W/m 10,5 km/h (2 Bft)
25.03.2015 09:36 6,0 C 5,6 C 97 % 1005,0 hPa 0,0 l/m 0 min 0 min 142 W/m 10,5 km/h (2 Bft)
25.03.2015 09:38 6,0 C 6,1 C 97 % 1005,0 hPa 0,0 l/m 0 min 0 min 137 W/m 12,6 km/h (3 Bft)
25.03.2015 09:40 6,0 C 5,6 C 97 % 1005,0 hPa 0,0 l/m 0 min 0 min 133 W/m 8,4 km/h (2 Bft)
25.03.2015 09:42 6,0 C 5,6 C 97 % 1005,0 hPa 0,0 l/m 0 min 0 min 129 W/m 8,4 km/h (2 Bft)
25.03.2015 09:44 6,0 C 5,6 C 97 % 1005,1 hPa 0,0 l/m 0 min 0 min 120 W/m 6,3 km/h (2 Bft)
25.03.2015 09:46 6,1 C 6,1 C 97 % 1005,1 hPa 0,0 l/m 0 min 0 min 125 W/m 10,5 km/h (2 Bft)
25.03.2015 09:48 6,1 C 5,6 C 97 % 1005,1 hPa 0,0 l/m 0 min 0 min 125 W/m 10,5 km/h (2 Bft)
25.03.2015 09:50 6,1 C 5,6 C 97 % 1005,2 hPa 0,0 l/m 0 min 0 min 121 W/m 8,4 km/h (2 Bft)
25.03.2015 09:52 6,1 C 5,6 C 97 % 1005,2 hPa 0,0 l/m 0 min 0 min 112 W/m 10,5 km/h (2 Bft)
25.03.2015 09:54 6,1 C 5,6 C 97 % 1005,1 hPa 0,0 l/m 0 min 0 min 122 W/m 8,4 km/h (2 Bft)
25.03.2015 09:56 6,2 C 5,6 C 97 % 1005,2 hPa 0,0 l/m 0 min 2 min 113 W/m 16,7 km/h (3 Bft)
25.03.2015 09:58 6,2 C 5,6 C 97 % 1005,2 hPa 0,0 l/m 0 min 2 min 108 W/m 10,5 km/h (2 Bft)
25.03.2015 10:00 6,1 C 5,6 C 97 % 1005,2 hPa 0,0 l/m 0 min 0 min 106 W/m 10,5 km/h (2 Bft)
25.03.2015 10:02 6,1 C 5,6 C 97 % 1005,1 hPa 0,0 l/m 0 min 0 min 98 W/m 12,6 km/h (3 Bft)
25.03.2015 10:04 6,1 C 5,6 C 97 % 1005,1 hPa 0,0 l/m 0 min 0 min 99 W/m 8,4 km/h (2 Bft)
25.03.2015 10:06 6,1 C 5,6 C 97 % 1005,2 hPa 0,0 l/m 0 min 2 min 97 W/m 10,5 km/h (2 Bft)
25.03.2015 10:08 6,1 C 5,6 C 97 % 1005,2 hPa 0,0 l/m 0 min 0 min 100 W/m 10,5 km/h (2 Bft)
25.03.2015 10:10 6,1 C 5,6 C 97 % 1005,1 hPa 0,0 l/m 0 min 0 min 110 W/m 12,6 km/h (3 Bft)
25.03.2015 10:12 6,1 C 5,6 C 97 % 1005,2 hPa 0,0 l/m 0 min 0 min 101 W/m 8,4 km/h (2 Bft)
25.03.2015 10:14 6,1 C 5,6 C 97 % 1005,3 hPa 0,0 l/m 0 min 0 min 95 W/m 10,5 km/h (2 Bft)
25.03.2015 10:16 6,1 C 5,6 C 97 % 1005,4 hPa 0,0 l/m 0 min 0 min 82 W/m 8,4 km/h (2 Bft)
25.03.2015 10:18 6,1 C 5,6 C 96 % 1005,4 hPa 0,0 l/m 0 min 0 min 78 W/m 10,5 km/h (2 Bft)
25.03.2015 10:20 6,1 C 5,6 C 96 % 1005,4 hPa 0,0 l/m 0 min 0 min 78 W/m 10,5 km/h (2 Bft)
25.03.2015 10:22 6,1 C 5,0 C 97 % 1005,5 hPa 0,0 l/m 0 min 2 min 74 W/m 10,5 km/h (2 Bft)
25.03.2015 10:24 6,1 C 5,0 C 97 % 1005,5 hPa 0,0 l/m 0 min 2 min 69 W/m 8,4 km/h (2 Bft)
25.03.2015 10:26 6,1 C 5,0 C 97 % 1005,6 hPa 0,0 l/m 0 min 2 min 69 W/m 8,4 km/h (2 Bft)
25.03.2015 10:28 6,1 C 5,0 C 97 % 1005,6 hPa 0,0 l/m 0 min 2 min 68 W/m 10,5 km/h (2 Bft)
25.03.2015 10:30 6,1 C 5,0 C 97 % 1005,6 hPa 0,0 l/m 0 min 2 min 61 W/m 8,4 km/h (2 Bft)
25.03.2015 10:32 6,1 C 5,0 C 97 % 1005,6 hPa 0,0 l/m 0 min 2 min 55 W/m 8,4 km/h (2 Bft)
25.03.2015 10:34 6,1 C 5,0 C 96 % 1005,6 hPa 0,0 l/m 0 min 2 min 50 W/m 6,3 km/h (2 Bft)
25.03.2015 10:36 6,1 C 5,0 C 96 % 1005,6 hPa 0,0 l/m 0 min 2 min 55 W/m 6,3 km/h (2 Bft)
25.03.2015 10:38 6,1 C 5,0 C 96 % 1005,6 hPa 0,0 l/m 0 min 2 min 58 W/m 10,5 km/h (2 Bft)
25.03.2015 10:40 6,1 C 5,0 C 96 % 1005,6 hPa 0,0 l/m 0 min 2 min 49 W/m 10,5 km/h (2 Bft)
25.03.2015 10:42 6,1 C 5,0 C 96 % 1005,6 hPa 0,2 l/m 0 min 2 min 49 W/m 10,5 km/h (2 Bft)
25.03.2015 10:44 6,1 C 5,0 C 96 % 1005,6 hPa 0,0 l/m 0 min 2 min 58 W/m 10,5 km/h (2 Bft)
25.03.2015 10:46 6,1 C 5,0 C 96 % 1005,6 hPa 0,0 l/m 0 min 2 min 74 W/m 8,4 km/h (2 Bft)
25.03.2015 10:48 6,1 C 5,0 C 96 % 1005,6 hPa 0,0 l/m 0 min 2 min 89 W/m 10,5 km/h (2 Bft)
25.03.2015 10:50 6,1 C 5,0 C 96 % 1005,5 hPa 0,0 l/m 0 min 2 min 95 W/m 14,6 km/h (3 Bft)
25.03.2015 10:52 6,1 C 5,0 C 96 % 1005,5 hPa 0,0 l/m 0 min 2 min 95 W/m 10,5 km/h (2 Bft)
25.03.2015 10:54 6,1 C 5,0 C 96 % 1005,5 hPa 0,0 l/m 0 min 2 min 84 W/m 8,4 km/h (2 Bft)
25.03.2015 10:56 6,1 C 5,0 C 96 % 1005,6 hPa 0,2 l/m 0 min 2 min 81 W/m 8,4 km/h (2 Bft)
25.03.2015 10:58 6,1 C 5,0 C 96 % 1005,6 hPa 0,0 l/m 0 min 2 min 78 W/m 10,5 km/h (2 Bft)
25.03.2015 11:00 6,1 C 5,0 C 96 % 1005,6 hPa 0,0 l/m 0 min 2 min 73 W/m 6,3 km/h (2 Bft)
25.03.2015 11:02 6,1 C 5,0 C 96 % 1005,7 hPa 0,0 l/m 0 min 2 min 72 W/m 10,5 km/h (2 Bft)
25.03.2015 11:04 6,1 C 5,0 C 96 % 1005,8 hPa 0,0 l/m 0 min 2 min 70 W/m 10,5 km/h (2 Bft)
25.03.2015 11:06 6,1 C 5,0 C 96 % 1005,7 hPa 0,0 l/m 0 min 2 min 73 W/m 12,6 km/h (3 Bft)
25.03.2015 11:08 6,1 C 5,0 C 96 % 1005,8 hPa 0,0 l/m 0 min 2 min 78 W/m 10,5 km/h (2 Bft)
25.03.2015 11:10 6,1 C 5,0 C 96 % 1005,8 hPa 0,0 l/m 0 min 2 min 91 W/m 12,6 km/h (3 Bft)
25.03.2015 11:12 6,1 C 5,0 C 96 % 1005,8 hPa 0,0 l/m 0 min 2 min 111 W/m 10,5 km/h (2 Bft)
25.03.2015 11:14 6,1 C 5,0 C 96 % 1005,8 hPa 0,0 l/m 0 min 2 min 120 W/m 10,5 km/h (2 Bft)
25.03.2015 11:16 6,1 C 5,0 C 96 % 1005,8 hPa 0,0 l/m 0 min 2 min 110 W/m 14,6 km/h (3 Bft)
25.03.2015 11:18 6,1 C 5,0 C 96 % 1005,8 hPa 0,0 l/m 0 min 2 min 107 W/m 8,4 km/h (2 Bft)
25.03.2015 11:20 6,1 C 5,0 C 96 % 1005,7 hPa 0,0 l/m 0 min 2 min 112 W/m 10,5 km/h (2 Bft)
25.03.2015 11:22 6,1 C 5,6 C 96 % 1005,8 hPa 0,0 l/m 0 min 2 min 154 W/m 8,4 km/h (2 Bft)
25.03.2015 11:24 6,1 C 5,6 C 96 % 1005,7 hPa 0,0 l/m 0 min 2 min 177 W/m 14,6 km/h (3 Bft)
25.03.2015 11:26 6,1 C 5,6 C 96 % 1005,7 hPa 0,0 l/m 0 min 2 min 189 W/m 12,6 km/h (3 Bft)
25.03.2015 11:28 6,2 C 5,6 C 96 % 1005,7 hPa 0,0 l/m 0 min 2 min 189 W/m 12,6 km/h (3 Bft)
25.03.2015 11:30 6,2 C 6,1 C 96 % 1005,7 hPa 0,0 l/m 0 min 2 min 191 W/m 10,5 km/h (2 Bft)
25.03.2015 11:32 6,2 C 5,6 C 96 % 1005,8 hPa 0,0 l/m 0 min 2 min 169 W/m 12,6 km/h (3 Bft)
25.03.2015 11:34 6,3 C 5,6 C 96 % 1005,7 hPa 0,0 l/m 0 min 2 min 150 W/m 12,6 km/h (3 Bft)
25.03.2015 11:36 6,3 C 5,6 C 96 % 1005,8 hPa 0,0 l/m 0 min 2 min 137 W/m 12,6 km/h (3 Bft)
25.03.2015 11:38 6,3 C 5,6 C 96 % 1005,8 hPa 0,0 l/m 0 min 2 min 125 W/m 12,6 km/h (3 Bft)
25.03.2015 11:40 6,3 C 5,6 C 96 % 1005,8 hPa 0,2 l/m 0 min 2 min 108 W/m 10,5 km/h (2 Bft)
25.03.2015 11:42 6,3 C 5,6 C 96 % 1005,8 hPa 0,0 l/m 0 min 2 min 103 W/m 12,6 km/h (3 Bft)
25.03.2015 11:44 6,3 C 5,6 C 96 % 1005,8 hPa 0,0 l/m 0 min 2 min 138 W/m 10,5 km/h (2 Bft)
25.03.2015 11:46 6,4 C 5,6 C 96 % 1005,8 hPa 0,0 l/m 0 min 2 min 126 W/m 10,5 km/h (2 Bft)
25.03.2015 11:48 6,4 C 5,6 C 96 % 1005,8 hPa 0,0 l/m 0 min 2 min 114 W/m 10,5 km/h (2 Bft)
25.03.2015 11:50 6,4 C 5,6 C 96 % 1005,9 hPa 0,0 l/m 0 min 2 min 111 W/m 12,6 km/h (3 Bft)
25.03.2015 11:52 6,4 C 5,6 C 96 % 1005,9 hPa 0,0 l/m 0 min 2 min 105 W/m 12,6 km/h (3 Bft)
25.03.2015 11:54 6,4 C 5,6 C 96 % 1005,8 hPa 0,0 l/m 0 min 2 min 98 W/m 12,6 km/h (3 Bft)
25.03.2015 11:56 6,4 C 5,6 C 96 % 1005,9 hPa 0,0 l/m 0 min 2 min 123 W/m 8,4 km/h (2 Bft)
25.03.2015 11:58 6,4 C 5,6 C 96 % 1006,0 hPa 0,2 l/m 0 min 2 min 137 W/m 14,6 km/h (3 Bft)
25.03.2015 12:00 6,4 C 5,6 C 96 % 1006,0 hPa 0,0 l/m 0 min 2 min 113 W/m 12,6 km/h (3 Bft)
25.03.2015 12:02 6,4 C 5,6 C 96 % 1006,1 hPa 0,0 l/m 0 min 2 min 102 W/m 12,6 km/h (3 Bft)
25.03.2015 12:06 6,4 C 5,6 C 96 % 1006,1 hPa 0,0 l/m 0 min 2 min 94 W/m 14,6 km/h (3 Bft)
25.03.2015 12:08 6,4 C 5,6 C 96 % 1006,1 hPa 0,0 l/m 0 min 2 min 88 W/m 16,7 km/h (3 Bft)
25.03.2015 12:10 6,4 C 5,6 C 96 % 1006,1 hPa 0,0 l/m 0 min 2 min 91 W/m 10,5 km/h (2 Bft)
25.03.2015 12:12 6,4 C 5,6 C 96 % 1006,1 hPa 0,0 l/m 0 min 2 min 96 W/m 14,6 km/h (3 Bft)
25.03.2015 12:14 6,4 C 5,6 C 96 % 1006,1 hPa 0,0 l/m 0 min 2 min 80 W/m 14,6 km/h (3 Bft)
25.03.2015 12:16 6,4 C 5,0 C 96 % 1006,2 hPa 0,0 l/m 0 min 2 min 72 W/m 10,5 km/h (2 Bft)
25.03.2015 12:18 6,4 C 5,0 C 96 % 1006,2 hPa 0,0 l/m 0 min 2 min 79 W/m 12,6 km/h (3 Bft)
25.03.2015 12:20 6,3 C 5,0 C 96 % 1006,2 hPa 0,0 l/m 0 min 2 min 89 W/m 12,6 km/h (3 Bft)
25.03.2015 12:22 6,3 C 5,0 C 96 % 1006,2 hPa 0,0 l/m 0 min 2 min 90 W/m 12,6 km/h (3 Bft)
25.03.2015 12:24 6,3 C 5,0 C 96 % 1006,1 hPa 0,0 l/m 0 min 2 min 103 W/m 14,6 km/h (3 Bft)
25.03.2015 12:26 6,3 C 5,6 C 96 % 1006,2 hPa 0,0 l/m 0 min 2 min 111 W/m 10,5 km/h (2 Bft)
25.03.2015 12:28 6,3 C 5,6 C 96 % 1006,2 hPa 0,0 l/m 0 min 2 min 115 W/m 8,4 km/h (2 Bft)
25.03.2015 12:30 6,3 C 5,6 C 96 % 1006,2 hPa 0,0 l/m 0 min 2 min 133 W/m 12,6 km/h (3 Bft)
25.03.2015 12:32 6,3 C 5,6 C 96 % 1006,3 hPa 0,2 l/m 0 min 2 min 152 W/m 16,7 km/h (3 Bft)
25.03.2015 12:34 6,3 C 5,6 C 96 % 1006,3 hPa 0,0 l/m 0 min 2 min 179 W/m 10,5 km/h (2 Bft)
25.03.2015 12:36 6,3 C 5,6 C 96 % 1006,3 hPa 0,0 l/m 0 min 2 min 163 W/m 10,5 km/h (2 Bft)
25.03.2015 12:38 6,3 C 5,6 C 96 % 1006,3 hPa 0,0 l/m 0 min 2 min 115 W/m 14,6 km/h (3 Bft)
25.03.2015 12:40 6,3 C 5,6 C 96 % 1006,3 hPa 0,0 l/m 0 min 2 min 79 W/m 8,4 km/h (2 Bft)
25.03.2015 12:42 6,4 C 5,6 C 96 % 1006,4 hPa 0,0 l/m 0 min 2 min 76 W/m 12,6 km/h (3 Bft)
25.03.2015 12:44 6,4 C 5,0 C 96 % 1006,4 hPa 0,0 l/m 0 min 2 min 79 W/m 14,6 km/h (3 Bft)
25.03.2015 12:46 6,3 C 5,0 C 96 % 1006,4 hPa 0,0 l/m 0 min 2 min 78 W/m 14,6 km/h (3 Bft)
25.03.2015 12:48 6,3 C 5,0 C 96 % 1006,4 hPa 0,0 l/m 0 min 2 min 68 W/m 10,5 km/h (2 Bft)
25.03.2015 12:50 6,3 C 5,0 C 96 % 1006,5 hPa 0,0 l/m 0 min 2 min 63 W/m 18,8 km/h (3 Bft)
25.03.2015 12:52 6,3 C 5,0 C 96 % 1006,5 hPa 0,0 l/m 0 min 2 min 67 W/m 14,6 km/h (3 Bft)
25.03.2015 12:54 6,3 C 5,0 C 96 % 1006,5 hPa 0,0 l/m 0 min 2 min 91 W/m 18,8 km/h (3 Bft)
25.03.2015 12:56 6,3 C 5,6 C 96 % 1006,5 hPa 0,0 l/m 0 min 2 min 123 W/m 12,6 km/h (3 Bft)
25.03.2015 12:58 6,3 C 5,6 C 96 % 1006,4 hPa 0,2 l/m 0 min 2 min 140 W/m 12,6 km/h (3 Bft)
25.03.2015 13:00 6,3 C 5,6 C 96 % 1006,5 hPa 0,0 l/m 0 min 2 min 154 W/m 10,5 km/h (2 Bft)
25.03.2015 13:02 6,3 C 5,6 C 96 % 1006,5 hPa 0,0 l/m 0 min 2 min 122 W/m 16,7 km/h (3 Bft)
25.03.2015 13:04 6,3 C 5,6 C 96 % 1006,5 hPa 0,0 l/m 0 min 2 min 124 W/m 16,7 km/h (3 Bft)
25.03.2015 13:06 6,3 C 5,6 C 96 % 1006,4 hPa 0,0 l/m 0 min 2 min 144 W/m 14,6 km/h (3 Bft)
25.03.2015 13:08 6,3 C 5,0 C 96 % 1006,4 hPa 0,0 l/m 0 min 2 min 140 W/m 14,6 km/h (3 Bft)
25.03.2015 13:10 6,3 C 5,6 C 96 % 1006,4 hPa 0,0 l/m 0 min 2 min 145 W/m 14,6 km/h (3 Bft)
25.03.2015 13:12 6,3 C 5,6 C 96 % 1006,4 hPa 0,0 l/m 0 min 2 min 150 W/m 12,6 km/h (3 Bft)
25.03.2015 13:14 6,3 C 5,6 C 96 % 1006,4 hPa 0,0 l/m 0 min 2 min 148 W/m 14,6 km/h (3 Bft)
25.03.2015 13:16 6,3 C 5,6 C 96 % 1006,4 hPa 0,0 l/m 0 min 2 min 180 W/m 12,6 km/h (3 Bft)
25.03.2015 13:18 6,3 C 6,1 C 96 % 1006,4 hPa 0,0 l/m 0 min 0 min 204 W/m 16,7 km/h (3 Bft)
25.03.2015 13:20 6,4 C 6,1 C 96 % 1006,4 hPa 0,0 l/m 0 min 0 min 167 W/m 12,6 km/h (3 Bft)
25.03.2015 13:22 6,4 C 5,6 C 96 % 1006,3 hPa 0,0 l/m 0 min 0 min 154 W/m 16,7 km/h (3 Bft)
25.03.2015 13:24 6,4 C 5,6 C 96 % 1006,3 hPa 0,0 l/m 0 min 2 min 185 W/m 14,6 km/h (3 Bft)
25.03.2015 13:26 6,4 C 6,1 C 96 % 1006,3 hPa 0,0 l/m 2 min 2 min 214 W/m 12,6 km/h (3 Bft)
25.03.2015 13:28 6,4 C 6,7 C 96 % 1006,3 hPa 0,0 l/m 2 min 2 min 264 W/m 18,8 km/h (3 Bft)
25.03.2015 13:30 6,5 C 6,7 C 96 % 1006,2 hPa 0,0 l/m 2 min 0 min 292 W/m 18,8 km/h (3 Bft)
25.03.2015 13:32 6,6 C 6,7 C 96 % 1006,2 hPa 0,0 l/m 2 min 0 min 274 W/m 18,8 km/h (3 Bft)
25.03.2015 13:34 6,7 C 6,7 C 96 % 1006,3 hPa 0,0 l/m 2 min 0 min 241 W/m 14,6 km/h (3 Bft)
25.03.2015 13:36 6,7 C 6,7 C 96 % 1006,3 hPa 0,0 l/m 2 min 0 min 236 W/m 20,9 km/h (4 Bft)
25.03.2015 13:38 6,7 C 6,1 C 96 % 1006,2 hPa 0,0 l/m 2 min 0 min 208 W/m 12,6 km/h (3 Bft)
25.03.2015 13:40 6,7 C 6,1 C 96 % 1006,3 hPa 0,0 l/m 0 min 0 min 194 W/m 14,6 km/h (3 Bft)
25.03.2015 13:42 6,8 C 6,7 C 96 % 1006,4 hPa 0,0 l/m 0 min 0 min 197 W/m 18,8 km/h (3 Bft)
25.03.2015 13:44 6,8 C 6,7 C 96 % 1006,4 hPa 0,0 l/m 2 min 0 min 219 W/m 16,7 km/h (3 Bft)
25.03.2015 13:46 6,8 C 6,7 C 96 % 1006,5 hPa 0,0 l/m 2 min 0 min 210 W/m 23,0 km/h (4 Bft)
25.03.2015 13:48 6,8 C 6,7 C 96 % 1006,6 hPa 0,0 l/m 0 min 0 min 151 W/m 10,5 km/h (2 Bft)
25.03.2015 13:50 6,9 C 6,7 C 96 % 1006,6 hPa 0,0 l/m 0 min 0 min 130 W/m 10,5 km/h (2 Bft)
25.03.2015 13:52 6,9 C 6,1 C 96 % 1006,6 hPa 0,0 l/m 0 min 0 min 129 W/m 14,6 km/h (3 Bft)
25.03.2015 13:54 6,9 C 6,1 C 96 % 1006,7 hPa 0,0 l/m 0 min 0 min 137 W/m 16,7 km/h (3 Bft)
25.03.2015 13:56 6,9 C 6,1 C 96 % 1006,7 hPa 0,0 l/m 0 min 0 min 142 W/m 14,6 km/h (3 Bft)
25.03.2015 13:58 6,8 C 5,6 C 96 % 1006,6 hPa 0,0 l/m 0 min 2 min 121 W/m 16,7 km/h (3 Bft)
25.03.2015 14:00 6,8 C 5,6 C 96 % 1006,6 hPa 0,0 l/m 0 min 2 min 97 W/m 10,5 km/h (2 Bft)
25.03.2015 14:02 6,8 C 5,6 C 95 % 1006,7 hPa 0,0 l/m 0 min 2 min 81 W/m 8,4 km/h (2 Bft)
25.03.2015 14:04 6,8 C 5,6 C 95 % 1006,7 hPa 0,0 l/m 0 min 2 min 76 W/m 10,5 km/h (2 Bft)
25.03.2015 14:06 6,8 C 5,6 C 95 % 1006,6 hPa 0,0 l/m 0 min 2 min 89 W/m 12,6 km/h (3 Bft)
25.03.2015 14:08 6,8 C 5,6 C 95 % 1006,6 hPa 0,0 l/m 0 min 2 min 117 W/m 14,6 km/h (3 Bft)
25.03.2015 14:10 6,8 C 6,1 C 95 % 1006,6 hPa 0,0 l/m 0 min 0 min 127 W/m 14,6 km/h (3 Bft)
25.03.2015 14:12 6,7 C 6,1 C 95 % 1006,6 hPa 0,0 l/m 0 min 0 min 129 W/m 12,6 km/h (3 Bft)
25.03.2015 14:14 6,7 C 6,1 C 95 % 1006,6 hPa 0,0 l/m 0 min 0 min 118 W/m 12,6 km/h (3 Bft)
25.03.2015 14:16 6,7 C 6,1 C 95 % 1006,7 hPa 0,0 l/m 0 min 0 min 119 W/m 10,5 km/h (2 Bft)
25.03.2015 14:18 6,7 C 6,1 C 95 % 1006,7 hPa 0,0 l/m 0 min 0 min 131 W/m 14,6 km/h (3 Bft)
25.03.2015 14:20 6,7 C 6,1 C 95 % 1006,7 hPa 0,0 l/m 0 min 0 min 138 W/m 12,6 km/h (3 Bft)
25.03.2015 14:22 6,7 C 6,1 C 95 % 1006,6 hPa 0,0 l/m 0 min 0 min 138 W/m 10,5 km/h (2 Bft)
25.03.2015 14:24 6,7 C 6,1 C 95 % 1006,6 hPa 0,0 l/m 0 min 0 min 146 W/m 14,6 km/h (3 Bft)
25.03.2015 14:26 6,7 C 6,1 C 95 % 1006,7 hPa 0,0 l/m 0 min 0 min 155 W/m 16,7 km/h (3 Bft)
25.03.2015 14:28 6,7 C 6,1 C 95 % 1006,7 hPa 0,0 l/m 0 min 0 min 144 W/m 10,5 km/h (2 Bft)
25.03.2015 14:30 6,7 C 6,1 C 95 % 1006,6 hPa 0,0 l/m 0 min 0 min 149 W/m 14,6 km/h (3 Bft)
25.03.2015 14:32 6,8 C 6,1 C 95 % 1006,6 hPa 0,0 l/m 0 min 0 min 186 W/m 14,6 km/h (3 Bft)
25.03.2015 14:34 6,8 C 6,7 C 95 % 1006,6 hPa 0,0 l/m 2 min 0 min 228 W/m 18,8 km/h (3 Bft)
25.03.2015 14:36 6,8 C 6,7 C 94 % 1006,5 hPa 0,0 l/m 2 min 0 min 276 W/m 10,5 km/h (2 Bft)
25.03.2015 14:38 6,9 C 6,7 C 94 % 1006,6 hPa 0,0 l/m 2 min 0 min 244 W/m 14,6 km/h (3 Bft)
25.03.2015 14:40 6,9 C 6,1 C 94 % 1006,6 hPa 0,0 l/m 0 min 0 min 161 W/m 14,6 km/h (3 Bft)
25.03.2015 14:42 6,9 C 6,1 C 94 % 1006,6 hPa 0,0 l/m 0 min 0 min 133 W/m 12,6 km/h (3 Bft)
25.03.2015 14:44 6,9 C 6,1 C 94 % 1006,7 hPa 0,0 l/m 0 min 0 min 130 W/m 12,6 km/h (3 Bft)
25.03.2015 14:46 7,0 C 6,1 C 94 % 1006,8 hPa 0,0 l/m 0 min 0 min 128 W/m 8,4 km/h (2 Bft)
25.03.2015 14:48 7,0 C 6,1 C 94 % 1006,8 hPa 0,0 l/m 0 min 0 min 125 W/m 18,8 km/h (3 Bft)
25.03.2015 14:50 7,0 C 6,1 C 94 % 1006,7 hPa 0,0 l/m 0 min 0 min 105 W/m 8,4 km/h (2 Bft)
25.03.2015 14:52 7,0 C 6,1 C 94 % 1006,7 hPa 0,0 l/m 0 min 0 min 93 W/m 16,7 km/h (3 Bft)
25.03.2015 14:54 7,0 C 6,1 C 94 % 1006,8 hPa 0,0 l/m 0 min 0 min 109 W/m 12,6 km/h (3 Bft)
25.03.2015 14:56 6,9 C 6,1 C 94 % 1006,8 hPa 0,0 l/m 0 min 0 min 170 W/m 14,6 km/h (3 Bft)
25.03.2015 14:58 7,0 C 6,7 C 94 % 1006,7 hPa 0,0 l/m 2 min 0 min 232 W/m 14,6 km/h (3 Bft)
25.03.2015 15:00 7,0 C 6,7 C 93 % 1006,8 hPa 0,0 l/m 2 min 0 min 231 W/m 14,6 km/h (3 Bft)
25.03.2015 15:02 7,0 C 6,1 C 93 % 1006,8 hPa 0,0 l/m 2 min 0 min 192 W/m 20,9 km/h (4 Bft)
25.03.2015 15:04 7,0 C 6,1 C 93 % 1006,9 hPa 0,0 l/m 0 min 0 min 148 W/m 12,6 km/h (3 Bft)
25.03.2015 15:06 6,9 C 6,1 C 93 % 1007,0 hPa 0,0 l/m 0 min 0 min 111 W/m 16,7 km/h (3 Bft)
25.03.2015 15:08 6,9 C 5,6 C 93 % 1006,9 hPa 0,0 l/m 0 min 0 min 83 W/m 12,6 km/h (3 Bft)
25.03.2015 15:10 6,9 C 5,6 C 93 % 1007,0 hPa 0,0 l/m 0 min 0 min 71 W/m 12,6 km/h (3 Bft)
25.03.2015 15:12 6,9 C 5,6 C 93 % 1007,0 hPa 0,0 l/m 0 min 0 min 88 W/m 16,7 km/h (3 Bft)
25.03.2015 15:14 6,9 C 5,6 C 92 % 1007,0 hPa 0,0 l/m 0 min 0 min 121 W/m 20,9 km/h (4 Bft)
25.03.2015 15:16 6,9 C 5,6 C 92 % 1007,0 hPa 0,0 l/m 0 min 0 min 139 W/m 16,7 km/h (3 Bft)
25.03.2015 15:18 6,9 C 6,1 C 92 % 1006,9 hPa 0,0 l/m 0 min 0 min 150 W/m 18,8 km/h (3 Bft)
25.03.2015 15:20 6,9 C 6,1 C 92 % 1006,9 hPa 0,0 l/m 2 min 0 min 174 W/m 18,8 km/h (3 Bft)
25.03.2015 15:22 6,9 C 6,1 C 92 % 1007,0 hPa 0,0 l/m 2 min 0 min 201 W/m 12,6 km/h (3 Bft)
25.03.2015 15:24 7,0 C 6,7 C 92 % 1007,0 hPa 0,0 l/m 2 min 0 min 208 W/m 16,7 km/h (3 Bft)
25.03.2015 15:26 7,0 C 6,7 C 92 % 1007,0 hPa 0,0 l/m 2 min 0 min 205 W/m 18,8 km/h (3 Bft)
25.03.2015 15:28 7,1 C 6,7 C 92 % 1007,0 hPa 0,0 l/m 2 min 0 min 212 W/m 16,7 km/h (3 Bft)
25.03.2015 15:30 7,1 C 6,7 C 92 % 1007,0 hPa 0,0 l/m 2 min 0 min 202 W/m 12,6 km/h (3 Bft)
25.03.2015 15:32 7,1 C 6,7 C 92 % 1006,9 hPa 0,0 l/m 2 min 0 min 186 W/m 14,6 km/h (3 Bft)
25.03.2015 15:34 7,1 C 6,7 C 92 % 1007,0 hPa 0,0 l/m 2 min 0 min 166 W/m 12,6 km/h (3 Bft)
25.03.2015 15:36 7,1 C 6,1 C 91 % 1007,0 hPa 0,0 l/m 0 min 0 min 142 W/m 10,5 km/h (2 Bft)
25.03.2015 15:38 7,2 C 6,1 C 91 % 1007,1 hPa 0,0 l/m 0 min 0 min 118 W/m 16,7 km/h (3 Bft)
25.03.2015 15:40 7,2 C 6,1 C 91 % 1007,0 hPa 0,0 l/m 0 min 0 min 107 W/m 12,6 km/h (3 Bft)
25.03.2015 15:42 7,2 C 6,1 C 91 % 1007,1 hPa 0,0 l/m 0 min 2 min 95 W/m 10,5 km/h (2 Bft)
25.03.2015 15:44 7,2 C 5,6 C 91 % 1007,1 hPa 0,0 l/m 0 min 2 min 83 W/m 14,6 km/h (3 Bft)
25.03.2015 15:46 7,1 C 5,6 C 91 % 1007,0 hPa 0,0 l/m 0 min 0 min 72 W/m 12,6 km/h (3 Bft)
25.03.2015 15:48 7,1 C 5,6 C 90 % 1007,1 hPa 0,0 l/m 0 min 0 min 66 W/m 16,7 km/h (3 Bft)
25.03.2015 15:50 7,1 C 5,6 C 90 % 1007,0 hPa 0,0 l/m 0 min 0 min 65 W/m 16,7 km/h (3 Bft)
25.03.2015 15:52 7,1 C 5,6 C 90 % 1007,1 hPa 0,0 l/m 0 min 0 min 71 W/m 10,5 km/h (2 Bft)
25.03.2015 15:54 7,1 C 5,6 C 90 % 1007,1 hPa 0,0 l/m 0 min 0 min 77 W/m 10,5 km/h (2 Bft)
25.03.2015 15:56 7,1 C 5,6 C 90 % 1007,1 hPa 0,0 l/m 0 min 2 min 89 W/m 10,5 km/h (2 Bft)
25.03.2015 15:58 7,1 C 5,6 C 90 % 1007,2 hPa 0,0 l/m 0 min 0 min 108 W/m 16,7 km/h (3 Bft)
25.03.2015 16:00 7,1 C 5,6 C 90 % 1007,1 hPa 0,0 l/m 0 min 2 min 131 W/m 16,7 km/h (3 Bft)
25.03.2015 16:02 7,1 C 5,6 C 90 % 1007,2 hPa 0,0 l/m 2 min 2 min 155 W/m 16,7 km/h (3 Bft)
25.03.2015 16:04 7,1 C 6,1 C 90 % 1007,2 hPa 0,0 l/m 2 min 2 min 173 W/m 14,6 km/h (3 Bft)
25.03.2015 16:06 7,1 C 6,1 C 90 % 1007,1 hPa 0,0 l/m 2 min 2 min 191 W/m 14,6 km/h (3 Bft)
25.03.2015 16:08 7,1 C 6,1 C 91 % 1007,2 hPa 0,0 l/m 2 min 2 min 190 W/m 8,4 km/h (2 Bft)
25.03.2015 16:10 7,1 C 6,1 C 91 % 1007,1 hPa 0,0 l/m 2 min 2 min 174 W/m 16,7 km/h (3 Bft)
25.03.2015 16:12 7,1 C 6,1 C 91 % 1007,2 hPa 0,0 l/m 2 min 0 min 136 W/m 18,8 km/h (3 Bft)
25.03.2015 16:14 7,1 C 5,6 C 91 % 1007,2 hPa 0,0 l/m 0 min 0 min 104 W/m 14,6 km/h (3 Bft)
25.03.2015 16:16 7,1 C 5,6 C 90 % 1007,2 hPa 0,0 l/m 0 min 0 min 85 W/m 18,8 km/h (3 Bft)
25.03.2015 16:18 7,1 C 5,6 C 90 % 1007,2 hPa 0,0 l/m 0 min 2 min 76 W/m 16,7 km/h (3 Bft)
25.03.2015 16:20 7,1 C 5,6 C 90 % 1007,2 hPa 0,0 l/m 0 min 2 min 69 W/m 16,7 km/h (3 Bft)
25.03.2015 16:22 7,1 C 5,6 C 90 % 1007,2 hPa 0,0 l/m 0 min 2 min 69 W/m 18,8 km/h (3 Bft)
25.03.2015 16:24 7,0 C 5,6 C 90 % 1007,2 hPa 0,0 l/m 0 min 0 min 70 W/m 10,5 km/h (2 Bft)
25.03.2015 16:26 7,0 C 5,6 C 90 % 1007,2 hPa 0,0 l/m 0 min 2 min 76 W/m 14,6 km/h (3 Bft)
25.03.2015 16:28 7,0 C 5,6 C 90 % 1007,2 hPa 0,0 l/m 0 min 2 min 109 W/m 12,6 km/h (3 Bft)
25.03.2015 16:30 7,0 C 6,1 C 90 % 1007,3 hPa 0,0 l/m 2 min 2 min 155 W/m 14,6 km/h (3 Bft)
25.03.2015 16:32 7,1 C 6,1 C 90 % 1007,3 hPa 0,0 l/m 2 min 0 min 169 W/m 12,6 km/h (3 Bft)
25.03.2015 16:34 7,1 C 6,1 C 91 % 1007,3 hPa 0,0 l/m 2 min 2 min 150 W/m 18,8 km/h (3 Bft)
25.03.2015 16:36 7,1 C 5,6 C 91 % 1007,4 hPa 0,0 l/m 2 min 2 min 128 W/m 23,0 km/h (4 Bft)
25.03.2015 16:38 7,1 C 5,6 C 91 % 1007,4 hPa 0,0 l/m 2 min 0 min 123 W/m 18,8 km/h (3 Bft)
25.03.2015 16:40 7,0 C 5,6 C 90 % 1007,3 hPa 0,0 l/m 2 min 0 min 147 W/m 14,6 km/h (3 Bft)
25.03.2015 16:42 7,0 C 6,1 C 90 % 1007,3 hPa 0,0 l/m 2 min 0 min 193 W/m 18,8 km/h (3 Bft)
25.03.2015 16:44 7,0 C 6,1 C 90 % 1007,4 hPa 0,0 l/m 2 min 2 min 196 W/m 10,5 km/h (2 Bft)
25.03.2015 16:46 7,1 C 6,1 C 91 % 1007,5 hPa 0,0 l/m 2 min 0 min 175 W/m 14,6 km/h (3 Bft)
25.03.2015 16:48 7,1 C 6,1 C 91 % 1007,4 hPa 0,0 l/m 2 min 0 min 162 W/m 16,7 km/h (3 Bft)
25.03.2015 16:50 7,0 C 6,1 C 91 % 1007,4 hPa 0,0 l/m 2 min 0 min 163 W/m 20,9 km/h (4 Bft)
25.03.2015 16:52 7,1 C 6,1 C 91 % 1007,5 hPa 0,0 l/m 2 min 0 min 158 W/m 16,7 km/h (3 Bft)
25.03.2015 16:54 7,1 C 6,1 C 91 % 1007,4 hPa 0,0 l/m 2 min 0 min 155 W/m 12,6 km/h (3 Bft)
25.03.2015 16:56 7,1 C 6,1 C 91 % 1007,3 hPa 0,0 l/m 2 min 0 min 152 W/m 14,6 km/h (3 Bft)
25.03.2015 16:58 7,1 C 5,6 C 90 % 1007,3 hPa 0,0 l/m 2 min 0 min 147 W/m 18,8 km/h (3 Bft)
25.03.2015 17:00 7,1 C 6,1 C 90 % 1007,3 hPa 0,0 l/m 2 min 0 min 136 W/m 14,6 km/h (3 Bft)
25.03.2015 17:02 7,1 C 6,1 C 90 % 1007,3 hPa 0,0 l/m 2 min 0 min 123 W/m 14,6 km/h (3 Bft)
25.03.2015 17:04 7,1 C 5,6 C 90 % 1007,4 hPa 0,0 l/m 2 min 0 min 101 W/m 14,6 km/h (3 Bft)
25.03.2015 17:06 7,1 C 5,6 C 90 % 1007,3 hPa 0,0 l/m 0 min 0 min 88 W/m 12,6 km/h (3 Bft)
25.03.2015 17:08 7,1 C 5,6 C 90 % 1007,3 hPa 0,0 l/m 0 min 0 min 70 W/m 10,5 km/h (2 Bft)
25.03.2015 17:10 7,1 C 5,6 C 90 % 1007,3 hPa 0,0 l/m 0 min 0 min 55 W/m 14,6 km/h (3 Bft)
25.03.2015 17:12 7,0 C 5,6 C 90 % 1007,3 hPa 0,0 l/m 0 min 0 min 53 W/m 8,4 km/h (2 Bft)
25.03.2015 17:14 7,0 C 5,6 C 90 % 1007,2 hPa 0,0 l/m 0 min 0 min 57 W/m 10,5 km/h (2 Bft)
25.03.2015 17:16 7,0 C 5,6 C 90 % 1007,3 hPa 0,0 l/m 0 min 0 min 57 W/m 12,6 km/h (3 Bft)
25.03.2015 17:18 7,0 C 5,6 C 90 % 1007,4 hPa 0,0 l/m 0 min 0 min 58 W/m 8,4 km/h (2 Bft)
25.03.2015 17:20 7,0 C 5,6 C 90 % 1007,4 hPa 0,0 l/m 0 min 0 min 65 W/m 18,8 km/h (3 Bft)
25.03.2015 17:22 7,0 C 5,6 C 90 % 1007,5 hPa 0,0 l/m 0 min 2 min 58 W/m 12,6 km/h (3 Bft)
25.03.2015 17:24 7,0 C 5,6 C 90 % 1007,5 hPa 0,0 l/m 0 min 2 min 53 W/m 12,6 km/h (3 Bft)
25.03.2015 17:26 6,9 C 5,6 C 90 % 1007,5 hPa 0,0 l/m 0 min 0 min 55 W/m 14,6 km/h (3 Bft)
25.03.2015 17:28 6,9 C 5,6 C 90 % 1007,5 hPa 0,0 l/m 0 min 0 min 69 W/m 16,7 km/h (3 Bft)
25.03.2015 17:30 6,9 C 5,6 C 90 % 1007,5 hPa 0,0 l/m 2 min 0 min 73 W/m 12,6 km/h (3 Bft)
25.03.2015 17:32 6,9 C 5,6 C 90 % 1007,5 hPa 0,0 l/m 0 min 0 min 65 W/m 10,5 km/h (2 Bft)
25.03.2015 17:34 6,9 C 5,6 C 91 % 1007,5 hPa 0,0 l/m 0 min 0 min 59 W/m 10,5 km/h (2 Bft)
25.03.2015 17:36 6,9 C 5,6 C 91 % 1007,5 hPa 0,0 l/m 0 min 0 min 53 W/m 8,4 km/h (2 Bft)
25.03.2015 17:38 6,9 C 5,6 C 91 % 1007,4 hPa 0,0 l/m 0 min 0 min 44 W/m 16,7 km/h (3 Bft)
25.03.2015 17:40 6,9 C 5,6 C 91 % 1007,5 hPa 0,0 l/m 0 min 2 min 40 W/m 8,4 km/h (2 Bft)
25.03.2015 17:42 6,9 C 5,0 C 91 % 1007,5 hPa 0,0 l/m 0 min 0 min 34 W/m 10,5 km/h (2 Bft)
25.03.2015 17:44 6,9 C 5,0 C 91 % 1007,6 hPa 0,0 l/m 0 min 0 min 30 W/m 16,7 km/h (3 Bft)
25.03.2015 17:46 6,9 C 5,0 C 91 % 1007,5 hPa 0,0 l/m 0 min 2 min 33 W/m 8,4 km/h (2 Bft)
25.03.2015 17:48 6,8 C 5,0 C 91 % 1007,6 hPa 0,0 l/m 0 min 2 min 33 W/m 10,5 km/h (2 Bft)
25.03.2015 17:50 6,8 C 5,0 C 91 % 1007,6 hPa 0,0 l/m 0 min 2 min 28 W/m 12,6 km/h (3 Bft)
25.03.2015 17:52 6,8 C 5,0 C 91 % 1007,6 hPa 0,0 l/m 0 min 2 min 32 W/m 8,4 km/h (2 Bft)
25.03.2015 17:54 6,8 C 5,0 C 91 % 1007,6 hPa 0,0 l/m 0 min 2 min 33 W/m 14,6 km/h (3 Bft)
25.03.2015 17:56 6,8 C 5,0 C 91 % 1007,6 hPa 0,0 l/m 0 min 2 min 33 W/m 8,4 km/h (2 Bft)
25.03.2015 17:58 6,7 C 5,0 C 91 % 1007,7 hPa 0,0 l/m 0 min 0 min 30 W/m 8,4 km/h (2 Bft)
25.03.2015 18:00 6,7 C 5,0 C 91 % 1007,7 hPa 0,0 l/m 0 min 2 min 27 W/m 8,4 km/h (2 Bft)
25.03.2015 18:03 6,7 C 5,0 C 91 % 1007,8 hPa 0,0 l/m 0 min 2 min 24 W/m 14,6 km/h (3 Bft)
25.03.2015 18:04 6,7 C 5,0 C 91 % 1007,8 hPa 0,0 l/m 0 min 1 min 21 W/m 12,6 km/h (3 Bft)
25.03.2015 18:06 6,7 C 5,0 C 91 % 1007,8 hPa 0,0 l/m 0 min 2 min 19 W/m 8,4 km/h (2 Bft)
25.03.2015 18:08 6,7 C 5,0 C 91 % 1007,7 hPa 0,0 l/m 0 min 0 min 17 W/m 8,4 km/h (2 Bft)
25.03.2015 18:10 6,7 C 5,0 C 91 % 1007,8 hPa 0,0 l/m 0 min 0 min 14 W/m 8,4 km/h (2 Bft)
25.03.2015 18:12 6,6 C 5,0 C 91 % 1007,7 hPa 0,0 l/m 0 min 0 min 11 W/m 12,6 km/h (3 Bft)
25.03.2015 18:14 6,6 C 5,0 C 91 % 1007,7 hPa 0,0 l/m 0 min 0 min 9 W/m 6,3 km/h (2 Bft)
25.03.2015 18:16 6,6 C 5,0 C 91 % 1007,8 hPa 0,0 l/m 0 min 0 min 9 W/m 4,2 km/h (1 Bft)
25.03.2015 18:18 6,6 C 5,0 C 91 % 1007,8 hPa 0,0 l/m 0 min 0 min 8 W/m 4,2 km/h (1 Bft)
25.03.2015 18:20 6,6 C 5,0 C 91 % 1007,8 hPa 0,0 l/m 0 min 0 min 9 W/m 8,4 km/h (2 Bft)
25.03.2015 18:22 6,6 C 5,0 C 91 % 1007,8 hPa 0,0 l/m 0 min 0 min 9 W/m 10,5 km/h (2 Bft)
25.03.2015 18:24 6,6 C 5,0 C 91 % 1007,8 hPa 0,0 l/m 0 min 0 min 9 W/m 6,3 km/h (2 Bft)
25.03.2015 18:26 6,6 C 5,0 C 91 % 1007,8 hPa 0,0 l/m 0 min 0 min 7 W/m 8,4 km/h (2 Bft)
25.03.2015 18:28 6,6 C 5,0 C 92 % 1007,8 hPa 0,0 l/m 0 min 0 min 7 W/m 12,6 km/h (3 Bft)
25.03.2015 18:30 6,5 C 5,0 C 92 % 1007,8 hPa 0,0 l/m 0 min 0 min 6 W/m 8,4 km/h (2 Bft)
25.03.2015 18:32 6,5 C 5,0 C 92 % 1007,8 hPa 0,0 l/m 0 min 0 min 3 W/m 4,2 km/h (1 Bft)
25.03.2015 18:34 6,5 C 5,0 C 92 % 1007,9 hPa 0,0 l/m 0 min 0 min 0 W/m 4,2 km/h (1 Bft)
25.03.2015 18:36 6,5 C 5,0 C 92 % 1007,9 hPa 0,0 l/m 0 min 0 min 4 W/m 6,3 km/h (2 Bft)
25.03.2015 18:38 6,4 C 5,0 C 92 % 1007,9 hPa 0,0 l/m 0 min 0 min 5 W/m 10,5 km/h (2 Bft)
25.03.2015 18:40 6,4 C 5,0 C 92 % 1007,9 hPa 0,0 l/m 0 min 0 min 5 W/m 8,4 km/h (2 Bft)
25.03.2015 18:42 6,4 C 5,0 C 92 % 1007,9 hPa 0,0 l/m 0 min 0 min 1 W/m 8,4 km/h (2 Bft)
25.03.2015 18:44 6,4 C 5,0 C 92 % 1007,9 hPa 0,0 l/m 0 min 0 min 0 W/m 6,3 km/h (2 Bft)
25.03.2015 18:46 6,4 C 5,0 C 92 % 1007,9 hPa 0,0 l/m 0 min 2 min 0 W/m 12,6 km/h (3 Bft)
25.03.2015 18:48 6,4 C 5,0 C 92 % 1007,9 hPa 0,0 l/m 0 min 0 min 0 W/m 8,4 km/h (2 Bft)
25.03.2015 18:50 6,4 C 5,0 C 92 % 1007,9 hPa 0,0 l/m 0 min 0 min 0 W/m 12,6 km/h (3 Bft)
25.03.2015 18:52 6,4 C 4,4 C 92 % 1007,9 hPa 0,0 l/m 0 min 0 min 0 W/m 8,4 km/h (2 Bft)
25.03.2015 18:54 6,4 C 4,4 C 92 % 1007,9 hPa 0,0 l/m 0 min 0 min 0 W/m 10,5 km/h (2 Bft)
25.03.2015 18:56 6,4 C 4,4 C 92 % 1007,9 hPa 0,0 l/m 0 min 0 min 0 W/m 10,5 km/h (2 Bft)
25.03.2015 18:58 6,4 C 4,4 C 92 % 1007,9 hPa 0,0 l/m 0 min 0 min 0 W/m 8,4 km/h (2 Bft)
25.03.2015 19:00 6,4 C 4,4 C 92 % 1007,9 hPa 0,0 l/m 0 min 2 min 0 W/m 10,5 km/h (2 Bft)
25.03.2015 19:02 6,4 C 4,4 C 92 % 1007,9 hPa 0,0 l/m 0 min 0 min 0 W/m 12,6 km/h (3 Bft)
25.03.2015 19:04 6,3 C 4,4 C 92 % 1007,9 hPa 0,0 l/m 0 min 0 min 0 W/m 6,3 km/h (2 Bft)
25.03.2015 19:06 6,3 C 4,4 C 92 % 1007,9 hPa 0,0 l/m 0 min 0 min 0 W/m 8,4 km/h (2 Bft)
25.03.2015 19:08 6,3 C 4,4 C 92 % 1008,0 hPa 0,0 l/m 0 min 0 min 0 W/m 10,5 km/h (2 Bft)
25.03.2015 19:10 6,3 C 4,4 C 92 % 1008,0 hPa 0,0 l/m 0 min 0 min 0 W/m 8,4 km/h (2 Bft)
25.03.2015 19:12 6,3 C 4,4 C 92 % 1008,0 hPa 0,0 l/m 0 min 0 min 0 W/m 4,2 km/h (1 Bft)
25.03.2015 19:14 6,3 C 4,4 C 92 % 1008,0 hPa 0,0 l/m 0 min 2 min 0 W/m 6,3 km/h (2 Bft)
25.03.2015 19:16 6,3 C 4,4 C 92 % 1008,0 hPa 0,0 l/m 0 min 0 min 0 W/m 6,3 km/h (2 Bft)
25.03.2015 19:18 6,2 C 4,4 C 92 % 1008,1 hPa 0,0 l/m 0 min 0 min 0 W/m 10,5 km/h (2 Bft)
25.03.2015 19:20 6,2 C 4,4 C 92 % 1008,1 hPa 0,0 l/m 0 min 0 min 0 W/m 6,3 km/h (2 Bft)
25.03.2015 19:22 6,2 C 4,4 C 92 % 1008,2 hPa 0,0 l/m 0 min 0 min 0 W/m 10,5 km/h (2 Bft)
25.03.2015 19:24 6,2 C 4,4 C 92 % 1008,2 hPa 0,0 l/m 0 min 0 min 0 W/m 6,3 km/h (2 Bft)
25.03.2015 19:26 6,2 C 4,4 C 93 % 1008,2 hPa 0,0 l/m 0 min 0 min 0 W/m 6,3 km/h (2 Bft)
25.03.2015 19:28 6,2 C 4,4 C 92 % 1008,2 hPa 0,0 l/m 0 min 0 min 0 W/m 6,3 km/h (2 Bft)
25.03.2015 19:30 6,2 C 4,4 C 92 % 1008,2 hPa 0,0 l/m 0 min 0 min 0 W/m 4,2 km/h (1 Bft)
25.03.2015 19:32 6,2 C 4,4 C 92 % 1008,2 hPa 0,0 l/m 0 min 0 min 0 W/m 8,4 km/h (2 Bft)
25.03.2015 19:34 6,2 C 4,4 C 92 % 1008,1 hPa 0,0 l/m 0 min 0 min 0 W/m 4,2 km/h (1 Bft)
25.03.2015 19:36 6,2 C 4,4 C 92 % 1008,1 hPa 0,0 l/m 0 min 0 min 0 W/m 8,4 km/h (2 Bft)
25.03.2015 19:38 6,2 C 4,4 C 92 % 1008,1 hPa 0,0 l/m 0 min 0 min 0 W/m 4,2 km/h (1 Bft)
25.03.2015 19:40 6,1 C 4,4 C 92 % 1008,1 hPa 0,0 l/m 0 min 0 min 0 W/m 4,2 km/h (1 Bft)
25.03.2015 19:42 6,1 C 4,4 C 92 % 1008,1 hPa 0,0 l/m 0 min 0 min 0 W/m 4,2 km/h (1 Bft)
25.03.2015 19:44 6,1 C 4,4 C 92 % 1008,1 hPa 0,0 l/m 0 min 0 min 0 W/m 4,2 km/h (1 Bft)
25.03.2015 19:46 6,1 C 4,4 C 93 % 1008,1 hPa 0,0 l/m 0 min 0 min 0 W/m 8,4 km/h (2 Bft)
25.03.2015 19:48 6,1 C 4,4 C 93 % 1008,1 hPa 0,0 l/m 0 min 0 min 0 W/m 8,4 km/h (2 Bft)
25.03.2015 19:50 6,1 C 4,4 C 93 % 1008,0 hPa 0,0 l/m 0 min 0 min 0 W/m 4,2 km/h (1 Bft)
25.03.2015 19:52 6,1 C 4,4 C 93 % 1008,1 hPa 0,0 l/m 0 min 0 min 0 W/m 8,4 km/h (2 Bft)
25.03.2015 19:54 6,1 C 4,4 C 93 % 1008,1 hPa 0,0 l/m 0 min 0 min 0 W/m 6,3 km/h (2 Bft)
25.03.2015 19:56 6,1 C 4,4 C 93 % 1008,2 hPa 0,0 l/m 0 min 0 min 0 W/m 8,4 km/h (2 Bft)
25.03.2015 19:58 6,1 C 4,4 C 93 % 1008,1 hPa 0,0 l/m 0 min 0 min 0 W/m 6,3 km/h (2 Bft)
25.03.2015 20:00 6,1 C 4,4 C 93 % 1008,2 hPa 0,0 l/m 0 min 0 min 0 W/m 6,3 km/h (2 Bft)
25.03.2015 20:02 6,1 C 4,4 C 93 % 1008,2 hPa 0,0 l/m 0 min 0 min 0 W/m 6,3 km/h (2 Bft)
25.03.2015 20:04 6,0 C 4,4 C 93 % 1008,2 hPa 0,0 l/m 0 min 0 min 0 W/m 6,3 km/h (2 Bft)
25.03.2015 20:06 6,0 C 4,4 C 93 % 1008,1 hPa 0,0 l/m 0 min 0 min 0 W/m 8,4 km/h (2 Bft)
25.03.2015 20:08 6,0 C 4,4 C 93 % 1008,2 hPa 0,0 l/m 0 min 0 min 0 W/m 8,4 km/h (2 Bft)
25.03.2015 20:10 6,0 C 4,4 C 93 % 1008,1 hPa 0,0 l/m 0 min 0 min 0 W/m 10,5 km/h (2 Bft)
25.03.2015 20:12 6,0 C 4,4 C 93 % 1008,2 hPa 0,0 l/m 0 min 0 min 0 W/m 8,4 km/h (2 Bft)
25.03.2015 20:14 6,0 C 4,4 C 93 % 1008,2 hPa 0,0 l/m 0 min 0 min 0 W/m 8,4 km/h (2 Bft)
25.03.2015 20:16 6,0 C 4,4 C 93 % 1008,2 hPa 0,0 l/m 0 min 0 min 0 W/m 12,6 km/h (3 Bft)
25.03.2015 20:18 6,0 C 4,4 C 93 % 1008,2 hPa 0,0 l/m 0 min 0 min 0 W/m 4,2 km/h (1 Bft)
25.03.2015 20:20 6,0 C 4,4 C 93 % 1008,1 hPa 0,0 l/m 0 min 0 min 0 W/m 4,2 km/h (1 Bft)
25.03.2015 20:22 6,0 C 4,4 C 93 % 1008,1 hPa 0,0 l/m 0 min 0 min 0 W/m 6,3 km/h (2 Bft)
25.03.2015 20:24 5,9 C 4,4 C 93 % 1008,1 hPa 0,0 l/m 0 min 0 min 0 W/m 6,3 km/h (2 Bft)
25.03.2015 20:26 5,9 C 4,4 C 93 % 1008,2 hPa 0,0 l/m 0 min 0 min 0 W/m 6,3 km/h (2 Bft)
25.03.2015 20:28 5,9 C 4,4 C 93 % 1008,2 hPa 0,0 l/m 0 min 0 min 0 W/m 6,3 km/h (2 Bft)
25.03.2015 20:30 5,9 C 4,4 C 93 % 1008,2 hPa 0,0 l/m 0 min 0 min 0 W/m 8,4 km/h (2 Bft)
25.03.2015 20:32 5,9 C 4,4 C 93 % 1008,2 hPa 0,0 l/m 0 min 0 min 0 W/m 8,4 km/h (2 Bft)
25.03.2015 20:34 5,9 C 4,4 C 93 % 1008,1 hPa 0,0 l/m 0 min 0 min 0 W/m 6,3 km/h (2 Bft)
25.03.2015 20:36 5,9 C 4,4 C 93 % 1008,1 hPa 0,0 l/m 0 min 0 min 0 W/m 6,3 km/h (2 Bft)
25.03.2015 20:38 5,9 C 4,4 C 93 % 1008,2 hPa 0,0 l/m 0 min 0 min 0 W/m 8,4 km/h (2 Bft)
25.03.2015 20:40 5,9 C 4,4 C 93 % 1008,1 hPa 0,0 l/m 0 min 0 min 0 W/m 8,4 km/h (2 Bft)
25.03.2015 20:42 5,9 C 4,4 C 93 % 1008,1 hPa 0,0 l/m 0 min 0 min 0 W/m 8,4 km/h (2 Bft)
25.03.2015 20:44 6,0 C 4,4 C 93 % 1008,1 hPa 0,0 l/m 0 min 0 min 0 W/m 10,5 km/h (2 Bft)
25.03.2015 20:46 5,9 C 4,4 C 93 % 1008,1 hPa 0,0 l/m 0 min 0 min 0 W/m 8,4 km/h (2 Bft)
25.03.2015 20:48 5,9 C 4,4 C 93 % 1008,1 hPa 0,0 l/m 0 min 0 min 0 W/m 8,4 km/h (2 Bft)
25.03.2015 20:50 5,9 C 4,4 C 93 % 1008,1 hPa 0,0 l/m 0 min 0 min 0 W/m 10,5 km/h (2 Bft)
25.03.2015 20:52 6,0 C 4,4 C 93 % 1008,1 hPa 0,0 l/m 0 min 0 min 0 W/m 6,3 km/h (2 Bft)
25.03.2015 20:54 6,0 C 4,4 C 93 % 1008,2 hPa 0,0 l/m 0 min 0 min 0 W/m 4,2 km/h (1 Bft)
25.03.2015 20:56 6,0 C 4,4 C 93 % 1008,1 hPa 0,0 l/m 0 min 2 min 0 W/m 8,4 km/h (2 Bft)
25.03.2015 20:58 6,0 C 4,4 C 94 % 1008,1 hPa 0,0 l/m 0 min 2 min 0 W/m 4,2 km/h (1 Bft)
25.03.2015 21:00 6,0 C 4,4 C 94 % 1008,1 hPa 0,0 l/m 0 min 2 min 0 W/m 6,3 km/h (2 Bft)
25.03.2015 21:02 6,0 C 4,4 C 94 % 1008,1 hPa 0,0 l/m 0 min 0 min 0 W/m 8,4 km/h (2 Bft)
25.03.2015 21:04 6,0 C 4,4 C 94 % 1008,1 hPa 0,0 l/m 0 min 2 min 0 W/m 10,5 km/h (2 Bft)
25.03.2015 21:06 6,0 C 4,4 C 94 % 1008,1 hPa 0,0 l/m 0 min 2 min 0 W/m 10,5 km/h (2 Bft)
25.03.2015 21:08 6,0 C 4,4 C 94 % 1008,2 hPa 0,0 l/m 0 min 0 min 0 W/m 10,5 km/h (2 Bft)
25.03.2015 21:10 6,0 C 4,4 C 94 % 1008,1 hPa 0,0 l/m 0 min 0 min 0 W/m 10,5 km/h (2 Bft)
25.03.2015 21:12 6,0 C 4,4 C 94 % 1008,2 hPa 0,0 l/m 0 min 2 min 0 W/m 12,6 km/h (3 Bft)
25.03.2015 21:14 6,0 C 4,4 C 94 % 1008,1 hPa 0,0 l/m 0 min 0 min 0 W/m 12,6 km/h (3 Bft)
25.03.2015 21:16 6,0 C 4,4 C 94 % 1008,1 hPa 0,0 l/m 0 min 0 min 0 W/m 10,5 km/h (2 Bft)
25.03.2015 21:18 6,0 C 4,4 C 94 % 1008,2 hPa 0,0 l/m 0 min 0 min 0 W/m 12,6 km/h (3 Bft)
25.03.2015 21:20 6,0 C 4,4 C 94 % 1008,2 hPa 0,0 l/m 0 min 0 min 0 W/m 10,5 km/h (2 Bft)
25.03.2015 21:22 6,0 C 4,4 C 94 % 1008,2 hPa 0,0 l/m 0 min 0 min 0 W/m 12,6 km/h (3 Bft)
25.03.2015 21:24 6,0 C 4,4 C 94 % 1008,2 hPa 0,0 l/m 0 min 0 min 0 W/m 14,6 km/h (3 Bft)
25.03.2015 21:26 6,0 C 4,4 C 94 % 1008,2 hPa 0,0 l/m 0 min 0 min 0 W/m 14,6 km/h (3 Bft)
25.03.2015 21:28 6,0 C 4,4 C 94 % 1008,2 hPa 0,0 l/m 0 min 0 min 0 W/m 12,6 km/h (3 Bft)
25.03.2015 21:30 6,0 C 4,4 C 94 % 1008,2 hPa 0,0 l/m 0 min 0 min 0 W/m 16,7 km/h (3 Bft)
25.03.2015 21:32 6,0 C 4,4 C 94 % 1008,2 hPa 0,0 l/m 0 min 0 min 0 W/m 6,3 km/h (2 Bft)
25.03.2015 21:34 6,0 C 4,4 C 94 % 1008,3 hPa 0,0 l/m 0 min 0 min 0 W/m 6,3 km/h (2 Bft)
25.03.2015 21:36 6,0 C 4,4 C 94 % 1008,3 hPa 0,0 l/m 0 min 0 min 0 W/m 10,5 km/h (2 Bft)
25.03.2015 21:38 6,0 C 4,4 C 94 % 1008,3 hPa 0,0 l/m 0 min 0 min 0 W/m 10,5 km/h (2 Bft)
25.03.2015 21:40 6,0 C 4,4 C 94 % 1008,3 hPa 0,0 l/m 0 min 0 min 0 W/m 4,2 km/h (1 Bft)
25.03.2015 21:42 6,0 C 4,4 C 94 % 1008,3 hPa 0,0 l/m 0 min 0 min 0 W/m 12,6 km/h (3 Bft)
25.03.2015 21:44 6,0 C 4,4 C 94 % 1008,2 hPa 0,0 l/m 0 min 0 min 0 W/m 10,5 km/h (2 Bft)
25.03.2015 21:46 6,0 C 4,4 C 94 % 1008,2 hPa 0,0 l/m 0 min 0 min 0 W/m 6,3 km/h (2 Bft)
25.03.2015 21:48 6,0 C 4,4 C 94 % 1008,2 hPa 0,0 l/m 0 min 0 min 0 W/m 6,3 km/h (2 Bft)
25.03.2015 21:50 6,0 C 4,4 C 94 % 1008,3 hPa 0,0 l/m 0 min 0 min 0 W/m 8,4 km/h (2 Bft)
25.03.2015 21:52 6,0 C 4,4 C 94 % 1008,3 hPa 0,0 l/m 0 min 0 min 0 W/m 6,3 km/h (2 Bft)
25.03.2015 21:54 6,0 C 4,4 C 94 % 1008,3 hPa 0,0 l/m 0 min 0 min 0 W/m 10,5 km/h (2 Bft)
25.03.2015 21:56 5,9 C 4,4 C 94 % 1008,3 hPa 0,0 l/m 0 min 0 min 0 W/m 8,4 km/h (2 Bft)
25.03.2015 21:58 6,0 C 4,4 C 94 % 1008,3 hPa 0,0 l/m 0 min 0 min 0 W/m 12,6 km/h (3 Bft)
25.03.2015 22:00 5,9 C 4,4 C 94 % 1008,3 hPa 0,0 l/m 0 min 0 min 0 W/m 6,3 km/h (2 Bft)
25.03.2015 22:02 5,9 C 4,4 C 94 % 1008,3 hPa 0,0 l/m 0 min 0 min 0 W/m 8,4 km/h (2 Bft)
25.03.2015 22:04 5,9 C 4,4 C 94 % 1008,4 hPa 0,0 l/m 0 min 0 min 0 W/m 10,5 km/h (2 Bft)
25.03.2015 22:06 5,9 C 4,4 C 94 % 1008,3 hPa 0,0 l/m 0 min 0 min 0 W/m 14,6 km/h (3 Bft)
25.03.2015 22:08 5,9 C 4,4 C 94 % 1008,3 hPa 0,0 l/m 0 min 0 min 0 W/m 8,4 km/h (2 Bft)
25.03.2015 22:10 5,9 C 4,4 C 94 % 1008,3 hPa 0,0 l/m 0 min 0 min 0 W/m 10,5 km/h (2 Bft)
25.03.2015 22:12 5,9 C 4,4 C 94 % 1008,3 hPa 0,0 l/m 0 min 0 min 0 W/m 8,4 km/h (2 Bft)
25.03.2015 22:14 5,9 C 4,4 C 94 % 1008,4 hPa 0,0 l/m 0 min 0 min 0 W/m 8,4 km/h (2 Bft)
25.03.2015 22:16 5,9 C 4,4 C 94 % 1008,3 hPa 0,0 l/m 0 min 0 min 0 W/m 8,4 km/h (2 Bft)
25.03.2015 22:18 5,9 C 4,4 C 94 % 1008,4 hPa 0,0 l/m 0 min 0 min 0 W/m 10,5 km/h (2 Bft)
25.03.2015 22:20 5,9 C 4,4 C 94 % 1008,3 hPa 0,0 l/m 0 min 0 min 0 W/m 10,5 km/h (2 Bft)
25.03.2015 22:22 5,9 C 4,4 C 94 % 1008,4 hPa 0,0 l/m 0 min 0 min 0 W/m 8,4 km/h (2 Bft)
25.03.2015 22:24 5,9 C 4,4 C 94 % 1008,3 hPa 0,0 l/m 0 min 0 min 0 W/m 8,4 km/h (2 Bft)
25.03.2015 22:26 5,9 C 4,4 C 94 % 1008,4 hPa 0,0 l/m 0 min 0 min 0 W/m 6,3 km/h (2 Bft)
25.03.2015 22:28 5,9 C 4,4 C 94 % 1008,4 hPa 0,0 l/m 0 min 0 min 0 W/m 14,6 km/h (3 Bft)
25.03.2015 22:30 5,9 C 4,4 C 94 % 1008,3 hPa 0,0 l/m 0 min 0 min 0 W/m 12,6 km/h (3 Bft)
25.03.2015 22:32 5,9 C 4,4 C 95 % 1008,3 hPa 0,0 l/m 0 min 0 min 0 W/m 10,5 km/h (2 Bft)
25.03.2015 22:34 5,9 C 4,4 C 95 % 1008,3 hPa 0,0 l/m 0 min 0 min 0 W/m 8,4 km/h (2 Bft)
25.03.2015 22:36 5,9 C 4,4 C 95 % 1008,3 hPa 0,0 l/m 0 min 0 min 0 W/m 14,6 km/h (3 Bft)
25.03.2015 22:38 5,9 C 4,4 C 95 % 1008,3 hPa 0,0 l/m 0 min 0 min 0 W/m 12,6 km/h (3 Bft)
25.03.2015 22:40 5,9 C 4,4 C 95 % 1008,3 hPa 0,0 l/m 0 min 0 min 0 W/m 10,5 km/h (2 Bft)
25.03.2015 22:42 5,9 C 4,4 C 95 % 1008,4 hPa 0,0 l/m 0 min 0 min 0 W/m 12,6 km/h (3 Bft)
25.03.2015 22:44 5,9 C 4,4 C 95 % 1008,3 hPa 0,0 l/m 0 min 0 min 0 W/m 14,6 km/h (3 Bft)
25.03.2015 22:46 5,8 C 4,4 C 95 % 1008,3 hPa 0,0 l/m 0 min 0 min 0 W/m 12,6 km/h (3 Bft)
25.03.2015 22:48 5,8 C 4,4 C 95 % 1008,3 hPa 0,0 l/m 0 min 0 min 0 W/m 14,6 km/h (3 Bft)
25.03.2015 22:50 5,8 C 4,4 C 95 % 1008,2 hPa 0,0 l/m 0 min 0 min 0 W/m 14,6 km/h (3 Bft)
25.03.2015 22:52 5,8 C 4,4 C 95 % 1008,3 hPa 0,0 l/m 0 min 0 min 0 W/m 10,5 km/h (2 Bft)
25.03.2015 22:54 5,8 C 4,4 C 95 % 1008,3 hPa 0,0 l/m 0 min 0 min 0 W/m 10,5 km/h (2 Bft)
25.03.2015 22:56 5,8 C 4,4 C 95 % 1008,3 hPa 0,0 l/m 0 min 0 min 0 W/m 10,5 km/h (2 Bft)
25.03.2015 22:58 5,8 C 4,4 C 95 % 1008,3 hPa 0,0 l/m 0 min 0 min 0 W/m 10,5 km/h (2 Bft)
25.03.2015 23:00 5,8 C 4,4 C 95 % 1008,2 hPa 0,0 l/m 0 min 0 min 0 W/m 8,4 km/h (2 Bft)
25.03.2015 23:02 5,8 C 4,4 C 95 % 1008,2 hPa 0,0 l/m 0 min 0 min 0 W/m 12,6 km/h (3 Bft)
25.03.2015 23:04 5,8 C 4,4 C 95 % 1008,2 hPa 0,0 l/m 0 min 0 min 0 W/m 8,4 km/h (2 Bft)
25.03.2015 23:06 5,8 C 4,4 C 95 % 1008,3 hPa 0,0 l/m 0 min 0 min 0 W/m 12,6 km/h (3 Bft)
25.03.2015 23:08 5,8 C 4,4 C 95 % 1008,2 hPa 0,0 l/m 0 min 0 min 0 W/m 12,6 km/h (3 Bft)
25.03.2015 23:10 5,8 C 4,4 C 95 % 1008,2 hPa 0,0 l/m 0 min 0 min 0 W/m 10,5 km/h (2 Bft)
25.03.2015 23:12 5,8 C 4,4 C 95 % 1008,2 hPa 0,0 l/m 0 min 0 min 0 W/m 14,6 km/h (3 Bft)
25.03.2015 23:14 5,8 C 4,4 C 95 % 1008,2 hPa 0,0 l/m 0 min 0 min 0 W/m 12,6 km/h (3 Bft)
25.03.2015 23:16 5,8 C 4,4 C 95 % 1008,2 hPa 0,0 l/m 0 min 0 min 0 W/m 8,4 km/h (2 Bft)
25.03.2015 23:18 5,8 C 4,4 C 95 % 1008,2 hPa 0,0 l/m 0 min 0 min 0 W/m 10,5 km/h (2 Bft)
25.03.2015 23:20 5,8 C 4,4 C 95 % 1008,3 hPa 0,0 l/m 0 min 0 min 0 W/m 14,6 km/h (3 Bft)
25.03.2015 23:22 5,8 C 4,4 C 95 % 1008,2 hPa 0,0 l/m 0 min 0 min 0 W/m 14,6 km/h (3 Bft)
25.03.2015 23:24 5,8 C 4,4 C 95 % 1008,2 hPa 0,0 l/m 0 min 0 min 0 W/m 12,6 km/h (3 Bft)
25.03.2015 23:26 5,8 C 4,4 C 95 % 1008,2 hPa 0,0 l/m 0 min 0 min 0 W/m 16,7 km/h (3 Bft)
25.03.2015 23:28 5,8 C 4,4 C 95 % 1008,2 hPa 0,0 l/m 0 min 0 min 0 W/m 8,4 km/h (2 Bft)
25.03.2015 23:30 5,8 C 4,4 C 95 % 1008,2 hPa 0,0 l/m 0 min 0 min 0 W/m 8,4 km/h (2 Bft)
25.03.2015 23:32 5,8 C 4,4 C 95 % 1008,2 hPa 0,0 l/m 0 min 0 min 0 W/m 10,5 km/h (2 Bft)
25.03.2015 23:34 5,8 C 4,4 C 95 % 1008,2 hPa 0,0 l/m 0 min 0 min 0 W/m 10,5 km/h (2 Bft)
25.03.2015 23:36 5,8 C 4,4 C 95 % 1008,3 hPa 0,0 l/m 0 min 0 min 0 W/m 12,6 km/h (3 Bft)
25.03.2015 23:38 5,7 C 4,4 C 95 % 1008,3 hPa 0,0 l/m 0 min 0 min 0 W/m 10,5 km/h (2 Bft)
25.03.2015 23:40 5,7 C 4,4 C 95 % 1008,2 hPa 0,0 l/m 0 min 0 min 0 W/m 10,5 km/h (2 Bft)
25.03.2015 23:42 5,7 C 4,4 C 95 % 1008,2 hPa 0,0 l/m 0 min 0 min 0 W/m 10,5 km/h (2 Bft)
25.03.2015 23:44 5,7 C 4,4 C 95 % 1008,3 hPa 0,0 l/m 0 min 0 min 0 W/m 14,6 km/h (3 Bft)
25.03.2015 23:46 5,7 C 4,4 C 95 % 1008,3 hPa 0,0 l/m 0 min 0 min 0 W/m 12,6 km/h (3 Bft)
25.03.2015 23:48 5,7 C 4,4 C 95 % 1008,3 hPa 0,0 l/m 0 min 0 min 0 W/m 10,5 km/h (2 Bft)
25.03.2015 23:50 5,7 C 4,4 C 95 % 1008,3 hPa 0,0 l/m 0 min 0 min 0 W/m 14,6 km/h (3 Bft)
25.03.2015 23:52 5,7 C 4,4 C 95 % 1008,3 hPa 0,0 l/m 0 min 0 min 0 W/m 10,5 km/h (2 Bft)
25.03.2015 23:54 5,7 C 4,4 C 95 % 1008,2 hPa 0,0 l/m 0 min 0 min 0 W/m 8,4 km/h (2 Bft)
25.03.2015 23:56 5,7 C 4,4 C 95 % 1008,3 hPa 0,0 l/m 0 min 0 min 0 W/m 14,6 km/h (3 Bft)
25.03.2015 23:58 5,7 C 4,4 C 95 % 1008,3 hPa 0,0 l/m 0 min 0 min 0 W/m 10,5 km/h (2 Bft)
_ Min-Zeit 05:38 02:50 00:00 05:48 - - - - 01:06
Minimum _ 5,5 C 4,4 C 79 % 1003,6 hPa - - - - 2,1 km/h (1 Bft)
_ Max-Zeit 00:00 13:28 08:40 22:04 02:40 13:26 02:28 13:30 13:46
Maximum _ 7,8 C 6,7 C 97 % 1008,4 hPa 0,2 l/m 2 min 2 min 292 W/m 23,0 km/h
NW (4 Bft)
Durchschnitt _ 6,3 C 5,1 C 93 % 1006,0 hPa #5,4 l/m #1:36 h #6:18 h 94 W/m 10,2 km/h (2 Bft)
© 2015 W. Hausmann